<?xml version="1.0" encoding="UTF-8" standalone="no" ?>
<gpx xmlns="http://www.topografix.com/GPX/1/1" xmlns:xsi="http://www.w3.org/2001/XMLSchema-instance" xsi:schemaLocation="http://www.topografix.com/GPX/1/1 http://www.topografix.com/GPX/1/1/gpx.xsd" version="1.1" creator="VisuGPX - https://www.visugpx.com">
  <metadata>
    <name>Boucle autour de Couraduque depuis Arrens</name>
  </metadata>
  <wpt lat="42.95698" lon="-0.21459">
    <ele>881.7</ele>
    <name><![CDATA[0000113]]></name>
    <type><![CDATA[Point de départ]]></type>
  </wpt>
  <wpt lat="42.95621" lon="-0.2148">
    <ele>881.1</ele>
    <name><![CDATA[0000114]]></name>
    <type><![CDATA[Point d'arrivée]]></type>
  </wpt>
  <wpt lat="42.95613" lon="-0.21469">
    <ele>880.9</ele>
    <name><![CDATA[0000114]]></name>
    <type><![CDATA[Point d'arrivée]]></type>
  </wpt>
  <wpt lat="42.95714" lon="-0.21586">
    <ele>887.9</ele>
  </wpt>
  <wpt lat="42.95775" lon="-0.21543">
    <ele>896.1</ele>
  </wpt>
  <trk>
    <name><![CDATA[Boucle autour de Couraduque depuis Arrens_1]]></name>
    <trkseg>
      <trkpt lat="42.95662" lon="-0.21537">
        <ele>897.49</ele>
        <time>2018-08-19T12:08:59Z</time>
      </trkpt>
      <trkpt lat="42.95646" lon="-0.21519">
        <ele>895.91</ele>
        <time>2018-08-19T12:09:02Z</time>
      </trkpt>
      <trkpt lat="42.95633" lon="-0.215">
        <ele>892.95</ele>
        <time>2018-08-19T12:09:05Z</time>
      </trkpt>
      <trkpt lat="42.95622" lon="-0.21472">
        <ele>893.51</ele>
        <time>2018-08-19T12:09:08Z</time>
      </trkpt>
      <trkpt lat="42.95612" lon="-0.21446">
        <ele>895.19</ele>
        <time>2018-08-19T12:09:11Z</time>
      </trkpt>
      <trkpt lat="42.95598" lon="-0.21426">
        <ele>894.82</ele>
        <time>2018-08-19T12:09:15Z</time>
      </trkpt>
      <trkpt lat="42.95578" lon="-0.21423">
        <ele>894.82</ele>
        <time>2018-08-19T12:09:20Z</time>
      </trkpt>
      <trkpt lat="42.95564" lon="-0.21403">
        <ele>896.51</ele>
        <time>2018-08-19T12:09:25Z</time>
      </trkpt>
      <trkpt lat="42.95552" lon="-0.21385">
        <ele>892.85</ele>
        <time>2018-08-19T12:09:36Z</time>
      </trkpt>
      <trkpt lat="42.95534" lon="-0.21371">
        <ele>892.52</ele>
        <time>2018-08-19T12:09:44Z</time>
      </trkpt>
      <trkpt lat="42.95522" lon="-0.21349">
        <ele>894.05</ele>
        <time>2018-08-19T12:09:48Z</time>
      </trkpt>
      <trkpt lat="42.95513" lon="-0.21327">
        <ele>892.91</ele>
        <time>2018-08-19T12:09:52Z</time>
      </trkpt>
      <trkpt lat="42.95514" lon="-0.213">
        <ele>893.14</ele>
        <time>2018-08-19T12:09:57Z</time>
      </trkpt>
      <trkpt lat="42.95516" lon="-0.21275">
        <ele>893.52</ele>
        <time>2018-08-19T12:10:02Z</time>
      </trkpt>
      <trkpt lat="42.9551" lon="-0.21251">
        <ele>893.82</ele>
        <time>2018-08-19T12:10:08Z</time>
      </trkpt>
      <trkpt lat="42.95504" lon="-0.21226">
        <ele>893.51</ele>
        <time>2018-08-19T12:10:14Z</time>
      </trkpt>
      <trkpt lat="42.95504" lon="-0.212">
        <ele>891.56</ele>
        <time>2018-08-19T12:10:22Z</time>
      </trkpt>
      <trkpt lat="42.95501" lon="-0.21169">
        <ele>889.83</ele>
        <time>2018-08-19T12:10:26Z</time>
      </trkpt>
      <trkpt lat="42.95494" lon="-0.2114">
        <ele>888.61</ele>
        <time>2018-08-19T12:10:30Z</time>
      </trkpt>
      <trkpt lat="42.95482" lon="-0.21117">
        <ele>889.79</ele>
        <time>2018-08-19T12:10:35Z</time>
      </trkpt>
      <trkpt lat="42.95472" lon="-0.21091">
        <ele>889.52</ele>
        <time>2018-08-19T12:10:40Z</time>
      </trkpt>
      <trkpt lat="42.95463" lon="-0.21067">
        <ele>890.51</ele>
        <time>2018-08-19T12:10:46Z</time>
      </trkpt>
      <trkpt lat="42.95472" lon="-0.21042">
        <ele>889.59</ele>
        <time>2018-08-19T12:10:55Z</time>
      </trkpt>
      <trkpt lat="42.95486" lon="-0.21023">
        <ele>889.52</ele>
        <time>2018-08-19T12:11:00Z</time>
      </trkpt>
      <trkpt lat="42.95499" lon="-0.20997">
        <ele>890.51</ele>
        <time>2018-08-19T12:11:05Z</time>
      </trkpt>
      <trkpt lat="42.95508" lon="-0.20975">
        <ele>891.51</ele>
        <time>2018-08-19T12:11:09Z</time>
      </trkpt>
      <trkpt lat="42.95526" lon="-0.20962">
        <ele>888.92</ele>
        <time>2018-08-19T12:11:13Z</time>
      </trkpt>
      <trkpt lat="42.95545" lon="-0.2095">
        <ele>888.46</ele>
        <time>2018-08-19T12:11:17Z</time>
      </trkpt>
      <trkpt lat="42.95564" lon="-0.20934">
        <ele>888.52</ele>
        <time>2018-08-19T12:11:22Z</time>
      </trkpt>
      <trkpt lat="42.95574" lon="-0.20911">
        <ele>888.31</ele>
        <time>2018-08-19T12:11:27Z</time>
      </trkpt>
      <trkpt lat="42.95584" lon="-0.20882">
        <ele>887.82</ele>
        <time>2018-08-19T12:11:31Z</time>
      </trkpt>
      <trkpt lat="42.95594" lon="-0.20862">
        <ele>884.95</ele>
        <time>2018-08-19T12:11:34Z</time>
      </trkpt>
      <trkpt lat="42.95605" lon="-0.20842">
        <ele>881.95</ele>
        <time>2018-08-19T12:11:37Z</time>
      </trkpt>
      <trkpt lat="42.95617" lon="-0.20815">
        <ele>878.94</ele>
        <time>2018-08-19T12:11:41Z</time>
      </trkpt>
      <trkpt lat="42.95626" lon="-0.20792">
        <ele>877.62</ele>
        <time>2018-08-19T12:11:44Z</time>
      </trkpt>
      <trkpt lat="42.95635" lon="-0.2077">
        <ele>874.94</ele>
        <time>2018-08-19T12:11:47Z</time>
      </trkpt>
      <trkpt lat="42.95645" lon="-0.20743">
        <ele>873.53</ele>
        <time>2018-08-19T12:11:51Z</time>
      </trkpt>
      <trkpt lat="42.95653" lon="-0.20721">
        <ele>873.31</ele>
        <time>2018-08-19T12:11:55Z</time>
      </trkpt>
      <trkpt lat="42.95661" lon="-0.20699">
        <ele>873.52</ele>
        <time>2018-08-19T12:11:59Z</time>
      </trkpt>
      <trkpt lat="42.95672" lon="-0.20674">
        <ele>873.31</ele>
        <time>2018-08-19T12:12:04Z</time>
      </trkpt>
      <trkpt lat="42.95682" lon="-0.20651">
        <ele>872.55</ele>
        <time>2018-08-19T12:12:08Z</time>
      </trkpt>
      <trkpt lat="42.95692" lon="-0.20628">
        <ele>870.62</ele>
        <time>2018-08-19T12:12:12Z</time>
      </trkpt>
      <trkpt lat="42.95699" lon="-0.20603">
        <ele>871.5</ele>
        <time>2018-08-19T12:12:16Z</time>
      </trkpt>
      <trkpt lat="42.95682" lon="-0.20587">
        <ele>869.83</ele>
        <time>2018-08-19T12:12:21Z</time>
      </trkpt>
      <trkpt lat="42.95663" lon="-0.20573">
        <ele>868.55</ele>
        <time>2018-08-19T12:12:27Z</time>
      </trkpt>
      <trkpt lat="42.95652" lon="-0.20553">
        <ele>867.52</ele>
        <time>2018-08-19T12:12:33Z</time>
      </trkpt>
      <trkpt lat="42.95661" lon="-0.20527">
        <ele>868.44</ele>
        <time>2018-08-19T12:12:38Z</time>
      </trkpt>
      <trkpt lat="42.95667" lon="-0.20499">
        <ele>870.21</ele>
        <time>2018-08-19T12:12:43Z</time>
      </trkpt>
      <trkpt lat="42.95652" lon="-0.20483">
        <ele>874.39</ele>
        <time>2018-08-19T12:12:47Z</time>
      </trkpt>
      <trkpt lat="42.95637" lon="-0.20468">
        <ele>875.52</ele>
        <time>2018-08-19T12:12:53Z</time>
      </trkpt>
      <trkpt lat="42.95622" lon="-0.20453">
        <ele>875.52</ele>
        <time>2018-08-19T12:12:59Z</time>
      </trkpt>
      <trkpt lat="42.95601" lon="-0.20438">
        <ele>877.2</ele>
        <time>2018-08-19T12:13:03Z</time>
      </trkpt>
      <trkpt lat="42.95586" lon="-0.20424">
        <ele>878.22</ele>
        <time>2018-08-19T12:13:07Z</time>
      </trkpt>
      <trkpt lat="42.95583" lon="-0.204">
        <ele>878.52</ele>
        <time>2018-08-19T12:13:12Z</time>
      </trkpt>
      <trkpt lat="42.95585" lon="-0.20371">
        <ele>877.61</ele>
        <time>2018-08-19T12:13:17Z</time>
      </trkpt>
      <trkpt lat="42.95578" lon="-0.20348">
        <ele>877.52</ele>
        <time>2018-08-19T12:13:22Z</time>
      </trkpt>
      <trkpt lat="42.95579" lon="-0.20321">
        <ele>878.5</ele>
        <time>2018-08-19T12:13:29Z</time>
      </trkpt>
      <trkpt lat="42.95586" lon="-0.20298">
        <ele>880.43</ele>
        <time>2018-08-19T12:13:37Z</time>
      </trkpt>
      <trkpt lat="42.95568" lon="-0.20289">
        <ele>883.62</ele>
        <time>2018-08-19T12:14:17Z</time>
      </trkpt>
      <trkpt lat="42.95568" lon="-0.20264">
        <ele>900.49</ele>
        <time>2018-08-19T12:14:57Z</time>
      </trkpt>
      <trkpt lat="42.95572" lon="-0.2024">
        <ele>905.51</ele>
        <time>2018-08-19T12:15:27Z</time>
      </trkpt>
      <trkpt lat="42.9557" lon="-0.20214">
        <ele>911.11</ele>
        <time>2018-08-19T12:16:05Z</time>
      </trkpt>
      <trkpt lat="42.95568" lon="-0.20188">
        <ele>913.51</ele>
        <time>2018-08-19T12:18:31Z</time>
      </trkpt>
      <trkpt lat="42.95571" lon="-0.20162">
        <ele>912.52</ele>
        <time>2018-08-19T12:18:40Z</time>
      </trkpt>
      <trkpt lat="42.95581" lon="-0.20142">
        <ele>911.61</ele>
        <time>2018-08-19T12:18:46Z</time>
      </trkpt>
      <trkpt lat="42.95587" lon="-0.20115">
        <ele>909.61</ele>
        <time>2018-08-19T12:18:52Z</time>
      </trkpt>
      <trkpt lat="42.9559" lon="-0.20088">
        <ele>909.61</ele>
        <time>2018-08-19T12:18:58Z</time>
      </trkpt>
      <trkpt lat="42.95592" lon="-0.20063">
        <ele>910.51</ele>
        <time>2018-08-19T12:19:04Z</time>
      </trkpt>
      <trkpt lat="42.95602" lon="-0.20039">
        <ele>909.63</ele>
        <time>2018-08-19T12:19:10Z</time>
      </trkpt>
      <trkpt lat="42.95622" lon="-0.20018">
        <ele>907.64</ele>
        <time>2018-08-19T12:19:14Z</time>
      </trkpt>
      <trkpt lat="42.95638" lon="-0.19995">
        <ele>904.94</ele>
        <time>2018-08-19T12:19:17Z</time>
      </trkpt>
      <trkpt lat="42.95653" lon="-0.19964">
        <ele>902.92</ele>
        <time>2018-08-19T12:19:20Z</time>
      </trkpt>
      <trkpt lat="42.95666" lon="-0.19935">
        <ele>901.83</ele>
        <time>2018-08-19T12:19:23Z</time>
      </trkpt>
      <trkpt lat="42.95682" lon="-0.19911">
        <ele>899.65</ele>
        <time>2018-08-19T12:19:26Z</time>
      </trkpt>
      <trkpt lat="42.957" lon="-0.19896">
        <ele>897.64</ele>
        <time>2018-08-19T12:19:29Z</time>
      </trkpt>
      <trkpt lat="42.95717" lon="-0.19871">
        <ele>895.62</ele>
        <time>2018-08-19T12:19:33Z</time>
      </trkpt>
      <trkpt lat="42.95732" lon="-0.19846">
        <ele>894.55</ele>
        <time>2018-08-19T12:19:36Z</time>
      </trkpt>
      <trkpt lat="42.95747" lon="-0.1983">
        <ele>893.61</ele>
        <time>2018-08-19T12:19:39Z</time>
      </trkpt>
      <trkpt lat="42.95758" lon="-0.19811">
        <ele>892.55</ele>
        <time>2018-08-19T12:19:42Z</time>
      </trkpt>
      <trkpt lat="42.9577" lon="-0.19787">
        <ele>891.82</ele>
        <time>2018-08-19T12:19:45Z</time>
      </trkpt>
      <trkpt lat="42.95783" lon="-0.19763">
        <ele>889.92</ele>
        <time>2018-08-19T12:19:48Z</time>
      </trkpt>
      <trkpt lat="42.95799" lon="-0.19741">
        <ele>888.62</ele>
        <time>2018-08-19T12:19:51Z</time>
      </trkpt>
      <trkpt lat="42.95817" lon="-0.19727">
        <ele>886.64</ele>
        <time>2018-08-19T12:19:54Z</time>
      </trkpt>
      <trkpt lat="42.95838" lon="-0.19716">
        <ele>884.85</ele>
        <time>2018-08-19T12:19:57Z</time>
      </trkpt>
      <trkpt lat="42.95864" lon="-0.19706">
        <ele>882.92</ele>
        <time>2018-08-19T12:20:00Z</time>
      </trkpt>
      <trkpt lat="42.95889" lon="-0.19698">
        <ele>878.28</ele>
        <time>2018-08-19T12:20:03Z</time>
      </trkpt>
      <trkpt lat="42.95909" lon="-0.1969">
        <ele>873.65</ele>
        <time>2018-08-19T12:20:08Z</time>
      </trkpt>
      <trkpt lat="42.95926" lon="-0.19679">
        <ele>871.83</ele>
        <time>2018-08-19T12:20:14Z</time>
      </trkpt>
      <trkpt lat="42.95941" lon="-0.19663">
        <ele>869.62</ele>
        <time>2018-08-19T12:20:19Z</time>
      </trkpt>
      <trkpt lat="42.95955" lon="-0.19648">
        <ele>869.52</ele>
        <time>2018-08-19T12:20:24Z</time>
      </trkpt>
      <trkpt lat="42.95971" lon="-0.19635">
        <ele>868.55</ele>
        <time>2018-08-19T12:20:28Z</time>
      </trkpt>
      <trkpt lat="42.95988" lon="-0.19626">
        <ele>868.52</ele>
        <time>2018-08-19T12:20:32Z</time>
      </trkpt>
      <trkpt lat="42.96006" lon="-0.19614">
        <ele>867.61</ele>
        <time>2018-08-19T12:20:37Z</time>
      </trkpt>
      <trkpt lat="42.96023" lon="-0.19605">
        <ele>866.55</ele>
        <time>2018-08-19T12:20:41Z</time>
      </trkpt>
      <trkpt lat="42.96042" lon="-0.19595">
        <ele>864.62</ele>
        <time>2018-08-19T12:20:45Z</time>
      </trkpt>
      <trkpt lat="42.96058" lon="-0.19582">
        <ele>863.82</ele>
        <time>2018-08-19T12:20:49Z</time>
      </trkpt>
      <trkpt lat="42.96075" lon="-0.19568">
        <ele>861.83</ele>
        <time>2018-08-19T12:20:53Z</time>
      </trkpt>
      <trkpt lat="42.96096" lon="-0.19563">
        <ele>862.23</ele>
        <time>2018-08-19T12:20:58Z</time>
      </trkpt>
      <trkpt lat="42.96118" lon="-0.19559">
        <ele>860.56</ele>
        <time>2018-08-19T12:21:03Z</time>
      </trkpt>
      <trkpt lat="42.96135" lon="-0.19567">
        <ele>858.53</ele>
        <time>2018-08-19T12:21:08Z</time>
      </trkpt>
      <trkpt lat="42.96152" lon="-0.19576">
        <ele>859.51</ele>
        <time>2018-08-19T12:21:13Z</time>
      </trkpt>
      <trkpt lat="42.96172" lon="-0.19584">
        <ele>860.49</ele>
        <time>2018-08-19T12:21:18Z</time>
      </trkpt>
      <trkpt lat="42.96192" lon="-0.19592">
        <ele>861.43</ele>
        <time>2018-08-19T12:21:24Z</time>
      </trkpt>
      <trkpt lat="42.96205" lon="-0.19609">
        <ele>861.52</ele>
        <time>2018-08-19T12:21:29Z</time>
      </trkpt>
      <trkpt lat="42.96215" lon="-0.19632">
        <ele>863.49</ele>
        <time>2018-08-19T12:21:34Z</time>
      </trkpt>
      <trkpt lat="42.96233" lon="-0.19646">
        <ele>863.52</ele>
        <time>2018-08-19T12:21:40Z</time>
      </trkpt>
      <trkpt lat="42.96249" lon="-0.1966">
        <ele>862.61</ele>
        <time>2018-08-19T12:21:44Z</time>
      </trkpt>
      <trkpt lat="42.96268" lon="-0.19675">
        <ele>860.83</ele>
        <time>2018-08-19T12:21:48Z</time>
      </trkpt>
      <trkpt lat="42.96286" lon="-0.19691">
        <ele>859.61</ele>
        <time>2018-08-19T12:21:52Z</time>
      </trkpt>
      <trkpt lat="42.963" lon="-0.19707">
        <ele>859.52</ele>
        <time>2018-08-19T12:21:56Z</time>
      </trkpt>
      <trkpt lat="42.96316" lon="-0.19725">
        <ele>860.52</ele>
        <time>2018-08-19T12:22:01Z</time>
      </trkpt>
      <trkpt lat="42.96331" lon="-0.19743">
        <ele>860.52</ele>
        <time>2018-08-19T12:22:06Z</time>
      </trkpt>
      <trkpt lat="42.96346" lon="-0.19762">
        <ele>859.82</ele>
        <time>2018-08-19T12:22:11Z</time>
      </trkpt>
      <trkpt lat="42.96361" lon="-0.19781">
        <ele>860.52</ele>
        <time>2018-08-19T12:22:16Z</time>
      </trkpt>
      <trkpt lat="42.96376" lon="-0.19799">
        <ele>860.52</ele>
        <time>2018-08-19T12:22:21Z</time>
      </trkpt>
      <trkpt lat="42.96389" lon="-0.19818">
        <ele>860.59</ele>
        <time>2018-08-19T12:22:26Z</time>
      </trkpt>
      <trkpt lat="42.96403" lon="-0.19838">
        <ele>859.61</ele>
        <time>2018-08-19T12:22:31Z</time>
      </trkpt>
      <trkpt lat="42.96415" lon="-0.19858">
        <ele>858.52</ele>
        <time>2018-08-19T12:22:36Z</time>
      </trkpt>
      <trkpt lat="42.96425" lon="-0.1988">
        <ele>859.52</ele>
        <time>2018-08-19T12:22:41Z</time>
      </trkpt>
      <trkpt lat="42.96433" lon="-0.19903">
        <ele>859.52</ele>
        <time>2018-08-19T12:22:46Z</time>
      </trkpt>
      <trkpt lat="42.96441" lon="-0.19926">
        <ele>859.52</ele>
        <time>2018-08-19T12:22:51Z</time>
      </trkpt>
      <trkpt lat="42.96449" lon="-0.19952">
        <ele>859.52</ele>
        <time>2018-08-19T12:22:57Z</time>
      </trkpt>
      <trkpt lat="42.96457" lon="-0.19974">
        <ele>860.49</ele>
        <time>2018-08-19T12:23:02Z</time>
      </trkpt>
      <trkpt lat="42.96467" lon="-0.19997">
        <ele>860.52</ele>
        <time>2018-08-19T12:23:07Z</time>
      </trkpt>
      <trkpt lat="42.96474" lon="-0.20023">
        <ele>861.51</ele>
        <time>2018-08-19T12:23:12Z</time>
      </trkpt>
      <trkpt lat="42.96484" lon="-0.20045">
        <ele>863.49</ele>
        <time>2018-08-19T12:23:17Z</time>
      </trkpt>
      <trkpt lat="42.96502" lon="-0.20062">
        <ele>864.43</ele>
        <time>2018-08-19T12:23:23Z</time>
      </trkpt>
      <trkpt lat="42.96516" lon="-0.20078">
        <ele>866.43</ele>
        <time>2018-08-19T12:23:29Z</time>
      </trkpt>
      <trkpt lat="42.9653" lon="-0.201">
        <ele>867.22</ele>
        <time>2018-08-19T12:23:35Z</time>
      </trkpt>
      <trkpt lat="42.96549" lon="-0.20102">
        <ele>867.53</ele>
        <time>2018-08-19T12:23:43Z</time>
      </trkpt>
      <trkpt lat="42.96562" lon="-0.20081">
        <ele>866.82</ele>
        <time>2018-08-19T12:23:49Z</time>
      </trkpt>
      <trkpt lat="42.96571" lon="-0.20059">
        <ele>866.52</ele>
        <time>2018-08-19T12:23:54Z</time>
      </trkpt>
      <trkpt lat="42.96578" lon="-0.20035">
        <ele>865.55</ele>
        <time>2018-08-19T12:23:59Z</time>
      </trkpt>
      <trkpt lat="42.96582" lon="-0.20008">
        <ele>868.39</ele>
        <time>2018-08-19T12:24:05Z</time>
      </trkpt>
      <trkpt lat="42.96585" lon="-0.19979">
        <ele>867.61</ele>
        <time>2018-08-19T12:24:10Z</time>
      </trkpt>
      <trkpt lat="42.96586" lon="-0.1995">
        <ele>868.43</ele>
        <time>2018-08-19T12:24:14Z</time>
      </trkpt>
      <trkpt lat="42.9659" lon="-0.19924">
        <ele>867.61</ele>
        <time>2018-08-19T12:24:18Z</time>
      </trkpt>
      <trkpt lat="42.96598" lon="-0.19898">
        <ele>865.85</ele>
        <time>2018-08-19T12:24:22Z</time>
      </trkpt>
      <trkpt lat="42.96606" lon="-0.19873">
        <ele>864.61</ele>
        <time>2018-08-19T12:24:26Z</time>
      </trkpt>
      <trkpt lat="42.96614" lon="-0.19849">
        <ele>862.56</ele>
        <time>2018-08-19T12:24:30Z</time>
      </trkpt>
      <trkpt lat="42.96619" lon="-0.19824">
        <ele>863.51</ele>
        <time>2018-08-19T12:24:34Z</time>
      </trkpt>
      <trkpt lat="42.96622" lon="-0.19798">
        <ele>863.52</ele>
        <time>2018-08-19T12:24:38Z</time>
      </trkpt>
      <trkpt lat="42.96622" lon="-0.19768">
        <ele>864.49</ele>
        <time>2018-08-19T12:24:42Z</time>
      </trkpt>
      <trkpt lat="42.96627" lon="-0.19741">
        <ele>864.73</ele>
        <time>2018-08-19T12:24:47Z</time>
      </trkpt>
      <trkpt lat="42.96633" lon="-0.19713">
        <ele>864.53</ele>
        <time>2018-08-19T12:24:52Z</time>
      </trkpt>
      <trkpt lat="42.96638" lon="-0.19688">
        <ele>865.51</ele>
        <time>2018-08-19T12:24:56Z</time>
      </trkpt>
      <trkpt lat="42.96642" lon="-0.19663">
        <ele>865.52</ele>
        <time>2018-08-19T12:25:00Z</time>
      </trkpt>
      <trkpt lat="42.96647" lon="-0.19637">
        <ele>865.52</ele>
        <time>2018-08-19T12:25:04Z</time>
      </trkpt>
      <trkpt lat="42.96652" lon="-0.19613">
        <ele>865.52</ele>
        <time>2018-08-19T12:25:08Z</time>
      </trkpt>
      <trkpt lat="42.96658" lon="-0.19587">
        <ele>865.52</ele>
        <time>2018-08-19T12:25:12Z</time>
      </trkpt>
      <trkpt lat="42.96666" lon="-0.19563">
        <ele>864.61</ele>
        <time>2018-08-19T12:25:16Z</time>
      </trkpt>
      <trkpt lat="42.96675" lon="-0.19535">
        <ele>864.52</ele>
        <time>2018-08-19T12:25:21Z</time>
      </trkpt>
      <trkpt lat="42.9668" lon="-0.19506">
        <ele>864.52</ele>
        <time>2018-08-19T12:25:26Z</time>
      </trkpt>
      <trkpt lat="42.96685" lon="-0.19481">
        <ele>864.59</ele>
        <time>2018-08-19T12:25:30Z</time>
      </trkpt>
      <trkpt lat="42.96692" lon="-0.19456">
        <ele>864.52</ele>
        <time>2018-08-19T12:25:34Z</time>
      </trkpt>
      <trkpt lat="42.96699" lon="-0.19432">
        <ele>863.53</ele>
        <time>2018-08-19T12:25:38Z</time>
      </trkpt>
      <trkpt lat="42.96708" lon="-0.1941">
        <ele>863.52</ele>
        <time>2018-08-19T12:25:42Z</time>
      </trkpt>
      <trkpt lat="42.96718" lon="-0.19385">
        <ele>862.53</ele>
        <time>2018-08-19T12:25:46Z</time>
      </trkpt>
      <trkpt lat="42.96729" lon="-0.19361">
        <ele>863.43</ele>
        <time>2018-08-19T12:25:50Z</time>
      </trkpt>
      <trkpt lat="42.96742" lon="-0.19339">
        <ele>863.52</ele>
        <time>2018-08-19T12:25:54Z</time>
      </trkpt>
      <trkpt lat="42.96755" lon="-0.19317">
        <ele>863.52</ele>
        <time>2018-08-19T12:25:58Z</time>
      </trkpt>
      <trkpt lat="42.96765" lon="-0.19292">
        <ele>863.59</ele>
        <time>2018-08-19T12:26:02Z</time>
      </trkpt>
      <trkpt lat="42.96775" lon="-0.19263">
        <ele>862.61</ele>
        <time>2018-08-19T12:26:06Z</time>
      </trkpt>
      <trkpt lat="42.96787" lon="-0.19235">
        <ele>861.61</ele>
        <time>2018-08-19T12:26:10Z</time>
      </trkpt>
      <trkpt lat="42.96803" lon="-0.19214">
        <ele>863.2</ele>
        <time>2018-08-19T12:26:14Z</time>
      </trkpt>
      <trkpt lat="42.96817" lon="-0.19198">
        <ele>863.52</ele>
        <time>2018-08-19T12:26:18Z</time>
      </trkpt>
      <trkpt lat="42.96833" lon="-0.19183">
        <ele>864.22</ele>
        <time>2018-08-19T12:26:22Z</time>
      </trkpt>
      <trkpt lat="42.96847" lon="-0.19167">
        <ele>863.53</ele>
        <time>2018-08-19T12:26:26Z</time>
      </trkpt>
      <trkpt lat="42.96866" lon="-0.19155">
        <ele>861.62</ele>
        <time>2018-08-19T12:26:30Z</time>
      </trkpt>
      <trkpt lat="42.96884" lon="-0.19136">
        <ele>860.32</ele>
        <time>2018-08-19T12:26:34Z</time>
      </trkpt>
      <trkpt lat="42.96899" lon="-0.19115">
        <ele>859.53</ele>
        <time>2018-08-19T12:26:38Z</time>
      </trkpt>
      <trkpt lat="42.9691" lon="-0.19094">
        <ele>859.25</ele>
        <time>2018-08-19T12:26:42Z</time>
      </trkpt>
      <trkpt lat="42.96918" lon="-0.19067">
        <ele>861.49</ele>
        <time>2018-08-19T12:26:47Z</time>
      </trkpt>
      <trkpt lat="42.96927" lon="-0.19044">
        <ele>861.52</ele>
        <time>2018-08-19T12:26:52Z</time>
      </trkpt>
      <trkpt lat="42.9694" lon="-0.19023">
        <ele>862.52</ele>
        <time>2018-08-19T12:26:57Z</time>
      </trkpt>
      <trkpt lat="42.96955" lon="-0.1901">
        <ele>863.51</ele>
        <time>2018-08-19T12:27:01Z</time>
      </trkpt>
      <trkpt lat="42.96972" lon="-0.19001">
        <ele>858.23</ele>
        <time>2018-08-19T12:27:27Z</time>
      </trkpt>
      <trkpt lat="42.96989" lon="-0.18986">
        <ele>860.58</ele>
        <time>2018-08-19T12:27:32Z</time>
      </trkpt>
      <trkpt lat="42.97007" lon="-0.18972">
        <ele>860.54</ele>
        <time>2018-08-19T12:27:37Z</time>
      </trkpt>
      <trkpt lat="42.97026" lon="-0.18964">
        <ele>859.52</ele>
        <time>2018-08-19T12:27:42Z</time>
      </trkpt>
      <trkpt lat="42.97047" lon="-0.18958">
        <ele>860.49</ele>
        <time>2018-08-19T12:27:48Z</time>
      </trkpt>
      <trkpt lat="42.97066" lon="-0.18955">
        <ele>862.22</ele>
        <time>2018-08-19T12:27:53Z</time>
      </trkpt>
      <trkpt lat="42.97085" lon="-0.1895">
        <ele>863.43</ele>
        <time>2018-08-19T12:27:58Z</time>
      </trkpt>
      <trkpt lat="42.97103" lon="-0.18944">
        <ele>863.52</ele>
        <time>2018-08-19T12:28:03Z</time>
      </trkpt>
      <trkpt lat="42.97123" lon="-0.18935">
        <ele>862.53</ele>
        <time>2018-08-19T12:28:08Z</time>
      </trkpt>
      <trkpt lat="42.97141" lon="-0.18925">
        <ele>863.22</ele>
        <time>2018-08-19T12:28:13Z</time>
      </trkpt>
      <trkpt lat="42.97159" lon="-0.18909">
        <ele>865.21</ele>
        <time>2018-08-19T12:28:19Z</time>
      </trkpt>
      <trkpt lat="42.97174" lon="-0.18894">
        <ele>866.22</ele>
        <time>2018-08-19T12:28:24Z</time>
      </trkpt>
      <trkpt lat="42.9719" lon="-0.18877">
        <ele>866.52</ele>
        <time>2018-08-19T12:28:29Z</time>
      </trkpt>
      <trkpt lat="42.97209" lon="-0.18864">
        <ele>865.52</ele>
        <time>2018-08-19T12:28:34Z</time>
      </trkpt>
      <trkpt lat="42.97227" lon="-0.18853">
        <ele>864.82</ele>
        <time>2018-08-19T12:28:39Z</time>
      </trkpt>
      <trkpt lat="42.97243" lon="-0.1884">
        <ele>865.52</ele>
        <time>2018-08-19T12:28:44Z</time>
      </trkpt>
      <trkpt lat="42.9726" lon="-0.1883">
        <ele>865.54</ele>
        <time>2018-08-19T12:28:49Z</time>
      </trkpt>
      <trkpt lat="42.97278" lon="-0.18821">
        <ele>866.22</ele>
        <time>2018-08-19T12:28:54Z</time>
      </trkpt>
      <trkpt lat="42.97294" lon="-0.1881">
        <ele>867.43</ele>
        <time>2018-08-19T12:28:59Z</time>
      </trkpt>
      <trkpt lat="42.97312" lon="-0.18797">
        <ele>867.52</ele>
        <time>2018-08-19T12:29:04Z</time>
      </trkpt>
      <trkpt lat="42.97328" lon="-0.18779">
        <ele>867.52</ele>
        <time>2018-08-19T12:29:09Z</time>
      </trkpt>
      <trkpt lat="42.97341" lon="-0.18759">
        <ele>866.55</ele>
        <time>2018-08-19T12:29:13Z</time>
      </trkpt>
      <trkpt lat="42.97356" lon="-0.18738">
        <ele>865.55</ele>
        <time>2018-08-19T12:29:18Z</time>
      </trkpt>
      <trkpt lat="42.97358" lon="-0.18713">
        <ele>864.55</ele>
        <time>2018-08-19T12:29:26Z</time>
      </trkpt>
      <trkpt lat="42.97355" lon="-0.18684">
        <ele>862.85</ele>
        <time>2018-08-19T12:29:31Z</time>
      </trkpt>
      <trkpt lat="42.97355" lon="-0.18658">
        <ele>862.46</ele>
        <time>2018-08-19T12:29:35Z</time>
      </trkpt>
      <trkpt lat="42.97353" lon="-0.18632">
        <ele>862.52</ele>
        <time>2018-08-19T12:29:39Z</time>
      </trkpt>
      <trkpt lat="42.97353" lon="-0.18607">
        <ele>861.82</ele>
        <time>2018-08-19T12:29:43Z</time>
      </trkpt>
      <trkpt lat="42.97354" lon="-0.1858">
        <ele>861.52</ele>
        <time>2018-08-19T12:29:47Z</time>
      </trkpt>
      <trkpt lat="42.97356" lon="-0.1855">
        <ele>861.55</ele>
        <time>2018-08-19T12:29:52Z</time>
      </trkpt>
      <trkpt lat="42.97356" lon="-0.18522">
        <ele>859.61</ele>
        <time>2018-08-19T12:29:57Z</time>
      </trkpt>
      <trkpt lat="42.97353" lon="-0.18493">
        <ele>858.61</ele>
        <time>2018-08-19T12:30:03Z</time>
      </trkpt>
      <trkpt lat="42.97349" lon="-0.18463">
        <ele>858.52</ele>
        <time>2018-08-19T12:30:08Z</time>
      </trkpt>
      <trkpt lat="42.97344" lon="-0.18439">
        <ele>856.62</ele>
        <time>2018-08-19T12:30:12Z</time>
      </trkpt>
      <trkpt lat="42.97332" lon="-0.18414">
        <ele>854.62</ele>
        <time>2018-08-19T12:30:16Z</time>
      </trkpt>
      <trkpt lat="42.9732" lon="-0.18392">
        <ele>854.52</ele>
        <time>2018-08-19T12:30:19Z</time>
      </trkpt>
      <trkpt lat="42.97303" lon="-0.18377">
        <ele>854.52</ele>
        <time>2018-08-19T12:30:22Z</time>
      </trkpt>
      <trkpt lat="42.97291" lon="-0.18356">
        <ele>852.64</ele>
        <time>2018-08-19T12:30:25Z</time>
      </trkpt>
      <trkpt lat="42.97281" lon="-0.18333">
        <ele>853.16</ele>
        <time>2018-08-19T12:30:28Z</time>
      </trkpt>
      <trkpt lat="42.97274" lon="-0.18305">
        <ele>852.82</ele>
        <time>2018-08-19T12:30:32Z</time>
      </trkpt>
      <trkpt lat="42.97265" lon="-0.18283">
        <ele>852.44</ele>
        <time>2018-08-19T12:30:36Z</time>
      </trkpt>
      <trkpt lat="42.97256" lon="-0.18262">
        <ele>853.43</ele>
        <time>2018-08-19T12:30:40Z</time>
      </trkpt>
      <trkpt lat="42.97247" lon="-0.18239">
        <ele>852.61</ele>
        <time>2018-08-19T12:30:45Z</time>
      </trkpt>
      <trkpt lat="42.97235" lon="-0.18211">
        <ele>852.52</ele>
        <time>2018-08-19T12:30:50Z</time>
      </trkpt>
      <trkpt lat="42.97223" lon="-0.18186">
        <ele>852.52</ele>
        <time>2018-08-19T12:30:53Z</time>
      </trkpt>
      <trkpt lat="42.97213" lon="-0.18165">
        <ele>852.52</ele>
        <time>2018-08-19T12:30:55Z</time>
      </trkpt>
      <trkpt lat="42.97198" lon="-0.18141">
        <ele>851.82</ele>
        <time>2018-08-19T12:30:58Z</time>
      </trkpt>
      <trkpt lat="42.97184" lon="-0.18118">
        <ele>851.52</ele>
        <time>2018-08-19T12:31:02Z</time>
      </trkpt>
      <trkpt lat="42.97186" lon="-0.1809">
        <ele>853.22</ele>
        <time>2018-08-19T12:31:08Z</time>
      </trkpt>
      <trkpt lat="42.97197" lon="-0.18071">
        <ele>854.43</ele>
        <time>2018-08-19T12:31:13Z</time>
      </trkpt>
      <trkpt lat="42.97208" lon="-0.18048">
        <ele>854.52</ele>
        <time>2018-08-19T12:31:18Z</time>
      </trkpt>
      <trkpt lat="42.97218" lon="-0.18022">
        <ele>855.52</ele>
        <time>2018-08-19T12:31:23Z</time>
      </trkpt>
      <trkpt lat="42.9723" lon="-0.18">
        <ele>856.51</ele>
        <time>2018-08-19T12:31:28Z</time>
      </trkpt>
      <trkpt lat="42.97244" lon="-0.1798">
        <ele>856.52</ele>
        <time>2018-08-19T12:31:34Z</time>
      </trkpt>
      <trkpt lat="42.97255" lon="-0.17953">
        <ele>854.62</ele>
        <time>2018-08-19T12:31:38Z</time>
      </trkpt>
      <trkpt lat="42.97264" lon="-0.17926">
        <ele>854.52</ele>
        <time>2018-08-19T12:31:41Z</time>
      </trkpt>
      <trkpt lat="42.97271" lon="-0.17902">
        <ele>854.52</ele>
        <time>2018-08-19T12:31:44Z</time>
      </trkpt>
      <trkpt lat="42.97277" lon="-0.17878">
        <ele>852.15</ele>
        <time>2018-08-19T12:31:47Z</time>
      </trkpt>
      <trkpt lat="42.97288" lon="-0.17858">
        <ele>850.8</ele>
        <time>2018-08-19T12:31:54Z</time>
      </trkpt>
      <trkpt lat="42.9731" lon="-0.1786">
        <ele>852.2</ele>
        <time>2018-08-19T12:31:58Z</time>
      </trkpt>
      <trkpt lat="42.97332" lon="-0.17854">
        <ele>853.57</ele>
        <time>2018-08-19T12:32:02Z</time>
      </trkpt>
      <trkpt lat="42.97343" lon="-0.17833">
        <ele>853.52</ele>
        <time>2018-08-19T12:32:06Z</time>
      </trkpt>
      <trkpt lat="42.9736" lon="-0.17821">
        <ele>853.52</ele>
        <time>2018-08-19T12:32:13Z</time>
      </trkpt>
      <trkpt lat="42.97374" lon="-0.178">
        <ele>853.52</ele>
        <time>2018-08-19T12:32:19Z</time>
      </trkpt>
      <trkpt lat="42.97391" lon="-0.17787">
        <ele>855.43</ele>
        <time>2018-08-19T12:32:25Z</time>
      </trkpt>
      <trkpt lat="42.9741" lon="-0.17783">
        <ele>856.43</ele>
        <time>2018-08-19T12:32:32Z</time>
      </trkpt>
      <trkpt lat="42.97429" lon="-0.17779">
        <ele>855.55</ele>
        <time>2018-08-19T12:32:41Z</time>
      </trkpt>
      <trkpt lat="42.97445" lon="-0.17764">
        <ele>854.55</ele>
        <time>2018-08-19T12:32:50Z</time>
      </trkpt>
      <trkpt lat="42.97465" lon="-0.17754">
        <ele>854.61</ele>
        <time>2018-08-19T12:32:56Z</time>
      </trkpt>
      <trkpt lat="42.97483" lon="-0.1774">
        <ele>853.62</ele>
        <time>2018-08-19T12:33:02Z</time>
      </trkpt>
      <trkpt lat="42.97492" lon="-0.17714">
        <ele>852.52</ele>
        <time>2018-08-19T12:33:08Z</time>
      </trkpt>
      <trkpt lat="42.97505" lon="-0.17695">
        <ele>854.1</ele>
        <time>2018-08-19T12:33:34Z</time>
      </trkpt>
      <trkpt lat="42.9751" lon="-0.1767">
        <ele>857.51</ele>
        <time>2018-08-19T12:33:40Z</time>
      </trkpt>
      <trkpt lat="42.97523" lon="-0.17647">
        <ele>857.52</ele>
        <time>2018-08-19T12:33:45Z</time>
      </trkpt>
      <trkpt lat="42.97536" lon="-0.17627">
        <ele>854.65</ele>
        <time>2018-08-19T12:33:49Z</time>
      </trkpt>
      <trkpt lat="42.97545" lon="-0.17606">
        <ele>852.91</ele>
        <time>2018-08-19T12:33:53Z</time>
      </trkpt>
      <trkpt lat="42.97555" lon="-0.17581">
        <ele>854.42</ele>
        <time>2018-08-19T12:33:58Z</time>
      </trkpt>
      <trkpt lat="42.97565" lon="-0.17556">
        <ele>853.52</ele>
        <time>2018-08-19T12:34:05Z</time>
      </trkpt>
      <trkpt lat="42.97579" lon="-0.17538">
        <ele>852.52</ele>
        <time>2018-08-19T12:34:11Z</time>
      </trkpt>
      <trkpt lat="42.97595" lon="-0.17527">
        <ele>852.82</ele>
        <time>2018-08-19T12:34:17Z</time>
      </trkpt>
      <trkpt lat="42.97609" lon="-0.17508">
        <ele>850.53</ele>
        <time>2018-08-19T12:34:25Z</time>
      </trkpt>
      <trkpt lat="42.97621" lon="-0.17487">
        <ele>848.53</ele>
        <time>2018-08-19T12:34:36Z</time>
      </trkpt>
      <trkpt lat="42.97635" lon="-0.17465">
        <ele>848.52</ele>
        <time>2018-08-19T12:34:43Z</time>
      </trkpt>
      <trkpt lat="42.97648" lon="-0.17446">
        <ele>848.52</ele>
        <time>2018-08-19T12:34:50Z</time>
      </trkpt>
      <trkpt lat="42.97654" lon="-0.17423">
        <ele>845.82</ele>
        <time>2018-08-19T12:35:00Z</time>
      </trkpt>
      <trkpt lat="42.97667" lon="-0.17406">
        <ele>842.85</ele>
        <time>2018-08-19T12:35:08Z</time>
      </trkpt>
      <trkpt lat="42.97672" lon="-0.17381">
        <ele>840.82</ele>
        <time>2018-08-19T12:35:14Z</time>
      </trkpt>
      <trkpt lat="42.97692" lon="-0.17388">
        <ele>832.69</ele>
        <time>2018-08-19T12:35:22Z</time>
      </trkpt>
      <trkpt lat="42.97704" lon="-0.17406">
        <ele>831.61</ele>
        <time>2018-08-19T12:35:26Z</time>
      </trkpt>
      <trkpt lat="42.97711" lon="-0.17434">
        <ele>834.48</ele>
        <time>2018-08-19T12:35:31Z</time>
      </trkpt>
      <trkpt lat="42.97718" lon="-0.17459">
        <ele>835.43</ele>
        <time>2018-08-19T12:35:36Z</time>
      </trkpt>
      <trkpt lat="42.97722" lon="-0.17484">
        <ele>838.27</ele>
        <time>2018-08-19T12:35:41Z</time>
      </trkpt>
      <trkpt lat="42.97728" lon="-0.17513">
        <ele>837.55</ele>
        <time>2018-08-19T12:35:46Z</time>
      </trkpt>
      <trkpt lat="42.97734" lon="-0.17541">
        <ele>836.82</ele>
        <time>2018-08-19T12:35:51Z</time>
      </trkpt>
      <trkpt lat="42.97746" lon="-0.17566">
        <ele>836.52</ele>
        <time>2018-08-19T12:35:56Z</time>
      </trkpt>
      <trkpt lat="42.97759" lon="-0.17589">
        <ele>835.82</ele>
        <time>2018-08-19T12:36:00Z</time>
      </trkpt>
      <trkpt lat="42.97774" lon="-0.17607">
        <ele>835.52</ele>
        <time>2018-08-19T12:36:04Z</time>
      </trkpt>
      <trkpt lat="42.97794" lon="-0.17608">
        <ele>833.62</ele>
        <time>2018-08-19T12:36:08Z</time>
      </trkpt>
      <trkpt lat="42.9781" lon="-0.17595">
        <ele>834.42</ele>
        <time>2018-08-19T12:36:14Z</time>
      </trkpt>
      <trkpt lat="42.97812" lon="-0.17569">
        <ele>835.51</ele>
        <time>2018-08-19T12:36:19Z</time>
      </trkpt>
      <trkpt lat="42.97811" lon="-0.17544">
        <ele>834.52</ele>
        <time>2018-08-19T12:36:24Z</time>
      </trkpt>
      <trkpt lat="42.97811" lon="-0.17519">
        <ele>833.82</ele>
        <time>2018-08-19T12:36:29Z</time>
      </trkpt>
      <trkpt lat="42.9781" lon="-0.17493">
        <ele>833.82</ele>
        <time>2018-08-19T12:36:35Z</time>
      </trkpt>
      <trkpt lat="42.9781" lon="-0.17467">
        <ele>835.43</ele>
        <time>2018-08-19T12:36:42Z</time>
      </trkpt>
      <trkpt lat="42.97815" lon="-0.1744">
        <ele>837.6</ele>
        <time>2018-08-19T12:37:01Z</time>
      </trkpt>
      <trkpt lat="42.97816" lon="-0.17412">
        <ele>837.52</ele>
        <time>2018-08-19T12:37:10Z</time>
      </trkpt>
      <trkpt lat="42.97817" lon="-0.17385">
        <ele>838.52</ele>
        <time>2018-08-19T12:37:17Z</time>
      </trkpt>
      <trkpt lat="42.97819" lon="-0.17359">
        <ele>838.52</ele>
        <time>2018-08-19T12:37:25Z</time>
      </trkpt>
      <trkpt lat="42.97821" lon="-0.17334">
        <ele>837.61</ele>
        <time>2018-08-19T12:37:32Z</time>
      </trkpt>
      <trkpt lat="42.97823" lon="-0.17308">
        <ele>839.49</ele>
        <time>2018-08-19T12:37:40Z</time>
      </trkpt>
      <trkpt lat="42.97827" lon="-0.17282">
        <ele>840.49</ele>
        <time>2018-08-19T12:37:47Z</time>
      </trkpt>
      <trkpt lat="42.97832" lon="-0.17258">
        <ele>843.42</ele>
        <time>2018-08-19T12:37:54Z</time>
      </trkpt>
      <trkpt lat="42.97841" lon="-0.17234">
        <ele>845.52</ele>
        <time>2018-08-19T12:38:01Z</time>
      </trkpt>
      <trkpt lat="42.9785" lon="-0.17211">
        <ele>846.22</ele>
        <time>2018-08-19T12:38:07Z</time>
      </trkpt>
      <trkpt lat="42.97861" lon="-0.17188">
        <ele>846.52</ele>
        <time>2018-08-19T12:38:13Z</time>
      </trkpt>
      <trkpt lat="42.9787" lon="-0.17162">
        <ele>848.43</ele>
        <time>2018-08-19T12:38:19Z</time>
      </trkpt>
      <trkpt lat="42.97879" lon="-0.17136">
        <ele>849.43</ele>
        <time>2018-08-19T12:38:25Z</time>
      </trkpt>
      <trkpt lat="42.97888" lon="-0.17112">
        <ele>849.82</ele>
        <time>2018-08-19T12:38:30Z</time>
      </trkpt>
      <trkpt lat="42.97894" lon="-0.17086">
        <ele>848.55</ele>
        <time>2018-08-19T12:38:35Z</time>
      </trkpt>
      <trkpt lat="42.97894" lon="-0.17057">
        <ele>848.52</ele>
        <time>2018-08-19T12:38:40Z</time>
      </trkpt>
      <trkpt lat="42.97896" lon="-0.17032">
        <ele>847.53</ele>
        <time>2018-08-19T12:38:45Z</time>
      </trkpt>
      <trkpt lat="42.97901" lon="-0.17006">
        <ele>847.52</ele>
        <time>2018-08-19T12:38:50Z</time>
      </trkpt>
      <trkpt lat="42.9791" lon="-0.16981">
        <ele>850.49</ele>
        <time>2018-08-19T12:38:56Z</time>
      </trkpt>
      <trkpt lat="42.97922" lon="-0.16959">
        <ele>851.43</ele>
        <time>2018-08-19T12:39:01Z</time>
      </trkpt>
      <trkpt lat="42.97931" lon="-0.16933">
        <ele>853.22</ele>
        <time>2018-08-19T12:39:07Z</time>
      </trkpt>
      <trkpt lat="42.97941" lon="-0.16907">
        <ele>855.52</ele>
        <time>2018-08-19T12:39:12Z</time>
      </trkpt>
      <trkpt lat="42.97948" lon="-0.16883">
        <ele>853.85</ele>
        <time>2018-08-19T12:39:15Z</time>
      </trkpt>
      <trkpt lat="42.97955" lon="-0.16859">
        <ele>852.62</ele>
        <time>2018-08-19T12:39:18Z</time>
      </trkpt>
      <trkpt lat="42.97963" lon="-0.16829">
        <ele>851.55</ele>
        <time>2018-08-19T12:39:22Z</time>
      </trkpt>
      <trkpt lat="42.97972" lon="-0.16799">
        <ele>851.52</ele>
        <time>2018-08-19T12:39:26Z</time>
      </trkpt>
      <trkpt lat="42.97986" lon="-0.16782">
        <ele>850.53</ele>
        <time>2018-08-19T12:39:31Z</time>
      </trkpt>
      <trkpt lat="42.97992" lon="-0.16782">
        <ele>845.52</ele>
        <time>2018-08-19T08:06:52Z</time>
      </trkpt>
      <trkpt lat="42.97992" lon="-0.16782">
        <ele>845.52</ele>
        <time>2018-08-19T08:06:52Z</time>
      </trkpt>
      <trkpt lat="42.97987" lon="-0.16807">
        <ele>847.52</ele>
        <time>2018-08-19T08:13:38Z</time>
      </trkpt>
      <trkpt lat="42.97979" lon="-0.16831">
        <ele>847.53</ele>
        <time>2018-08-19T08:13:49Z</time>
      </trkpt>
      <trkpt lat="42.97974" lon="-0.16856">
        <ele>848.52</ele>
        <time>2018-08-19T08:14:00Z</time>
      </trkpt>
      <trkpt lat="42.97973" lon="-0.1688">
        <ele>849.52</ele>
        <time>2018-08-19T08:14:13Z</time>
      </trkpt>
      <trkpt lat="42.97975" lon="-0.16905">
        <ele>851.5</ele>
        <time>2018-08-19T08:14:27Z</time>
      </trkpt>
      <trkpt lat="42.97977" lon="-0.1693">
        <ele>854.21</ele>
        <time>2018-08-19T08:14:40Z</time>
      </trkpt>
      <trkpt lat="42.9798" lon="-0.16956">
        <ele>857.49</ele>
        <time>2018-08-19T08:14:54Z</time>
      </trkpt>
      <trkpt lat="42.97982" lon="-0.16981">
        <ele>860.52</ele>
        <time>2018-08-19T08:15:08Z</time>
      </trkpt>
      <trkpt lat="42.97987" lon="-0.17005">
        <ele>862.52</ele>
        <time>2018-08-19T08:15:22Z</time>
      </trkpt>
      <trkpt lat="42.97996" lon="-0.16981">
        <ele>865.42</ele>
        <time>2018-08-19T08:15:34Z</time>
      </trkpt>
      <trkpt lat="42.98004" lon="-0.16958">
        <ele>866.52</ele>
        <time>2018-08-19T08:15:46Z</time>
      </trkpt>
      <trkpt lat="42.98012" lon="-0.16936">
        <ele>867.52</ele>
        <time>2018-08-19T08:15:57Z</time>
      </trkpt>
      <trkpt lat="42.98023" lon="-0.16915">
        <ele>868.5</ele>
        <time>2018-08-19T08:16:07Z</time>
      </trkpt>
      <trkpt lat="42.9804" lon="-0.16922">
        <ele>871.49</ele>
        <time>2018-08-19T08:16:20Z</time>
      </trkpt>
      <trkpt lat="42.98037" lon="-0.16948">
        <ele>873.22</ele>
        <time>2018-08-19T08:16:31Z</time>
      </trkpt>
      <trkpt lat="42.98033" lon="-0.16973">
        <ele>874.49</ele>
        <time>2018-08-19T08:16:42Z</time>
      </trkpt>
      <trkpt lat="42.98029" lon="-0.16997">
        <ele>876.43</ele>
        <time>2018-08-19T08:16:54Z</time>
      </trkpt>
      <trkpt lat="42.98027" lon="-0.17023">
        <ele>878.43</ele>
        <time>2018-08-19T08:17:06Z</time>
      </trkpt>
      <trkpt lat="42.98028" lon="-0.1705">
        <ele>880.22</ele>
        <time>2018-08-19T08:17:18Z</time>
      </trkpt>
      <trkpt lat="42.98032" lon="-0.17075">
        <ele>883.49</ele>
        <time>2018-08-19T08:17:30Z</time>
      </trkpt>
      <trkpt lat="42.98038" lon="-0.17098">
        <ele>885.22</ele>
        <time>2018-08-19T08:17:42Z</time>
      </trkpt>
      <trkpt lat="42.98044" lon="-0.17123">
        <ele>887.51</ele>
        <time>2018-08-19T08:17:55Z</time>
      </trkpt>
      <trkpt lat="42.9805" lon="-0.17148">
        <ele>890.43</ele>
        <time>2018-08-19T08:18:08Z</time>
      </trkpt>
      <trkpt lat="42.98056" lon="-0.17173">
        <ele>893.42</ele>
        <time>2018-08-19T08:18:20Z</time>
      </trkpt>
      <trkpt lat="42.98063" lon="-0.17196">
        <ele>894.52</ele>
        <time>2018-08-19T08:18:32Z</time>
      </trkpt>
      <trkpt lat="42.98068" lon="-0.17221">
        <ele>895.52</ele>
        <time>2018-08-19T08:18:44Z</time>
      </trkpt>
      <trkpt lat="42.98072" lon="-0.17246">
        <ele>897.49</ele>
        <time>2018-08-19T08:18:56Z</time>
      </trkpt>
      <trkpt lat="42.98078" lon="-0.17271">
        <ele>900.52</ele>
        <time>2018-08-19T08:19:08Z</time>
      </trkpt>
      <trkpt lat="42.98082" lon="-0.17296">
        <ele>901.55</ele>
        <time>2018-08-19T08:19:20Z</time>
      </trkpt>
      <trkpt lat="42.98087" lon="-0.1732">
        <ele>902.61</ele>
        <time>2018-08-19T08:19:32Z</time>
      </trkpt>
      <trkpt lat="42.98093" lon="-0.17344">
        <ele>905.49</ele>
        <time>2018-08-19T08:19:43Z</time>
      </trkpt>
      <trkpt lat="42.98098" lon="-0.17369">
        <ele>907.52</ele>
        <time>2018-08-19T08:19:55Z</time>
      </trkpt>
      <trkpt lat="42.98101" lon="-0.17394">
        <ele>911.22</ele>
        <time>2018-08-19T08:20:07Z</time>
      </trkpt>
      <trkpt lat="42.98105" lon="-0.1742">
        <ele>913.43</ele>
        <time>2018-08-19T08:20:20Z</time>
      </trkpt>
      <trkpt lat="42.98108" lon="-0.17446">
        <ele>915.52</ele>
        <time>2018-08-19T08:20:32Z</time>
      </trkpt>
      <trkpt lat="42.98115" lon="-0.17471">
        <ele>916.53</ele>
        <time>2018-08-19T08:20:43Z</time>
      </trkpt>
      <trkpt lat="42.98124" lon="-0.17493">
        <ele>917.52</ele>
        <time>2018-08-19T08:20:53Z</time>
      </trkpt>
      <trkpt lat="42.98128" lon="-0.17519">
        <ele>919.49</ele>
        <time>2018-08-19T08:21:01Z</time>
      </trkpt>
      <trkpt lat="42.98122" lon="-0.17543">
        <ele>921.51</ele>
        <time>2018-08-19T08:21:09Z</time>
      </trkpt>
      <trkpt lat="42.98122" lon="-0.17568">
        <ele>922.49</ele>
        <time>2018-08-19T08:21:20Z</time>
      </trkpt>
      <trkpt lat="42.98126" lon="-0.17594">
        <ele>924.51</ele>
        <time>2018-08-19T08:21:32Z</time>
      </trkpt>
      <trkpt lat="42.98138" lon="-0.17615">
        <ele>927.22</ele>
        <time>2018-08-19T08:21:44Z</time>
      </trkpt>
      <trkpt lat="42.98151" lon="-0.17633">
        <ele>929.22</ele>
        <time>2018-08-19T08:21:56Z</time>
      </trkpt>
      <trkpt lat="42.98164" lon="-0.17614">
        <ele>933.19</ele>
        <time>2018-08-19T08:22:10Z</time>
      </trkpt>
      <trkpt lat="42.98171" lon="-0.17591">
        <ele>935.49</ele>
        <time>2018-08-19T08:22:22Z</time>
      </trkpt>
      <trkpt lat="42.98183" lon="-0.17572">
        <ele>936.43</ele>
        <time>2018-08-19T08:22:32Z</time>
      </trkpt>
      <trkpt lat="42.98195" lon="-0.17552">
        <ele>938.51</ele>
        <time>2018-08-19T08:22:41Z</time>
      </trkpt>
      <trkpt lat="42.98212" lon="-0.17542">
        <ele>937.8</ele>
        <time>2018-08-19T08:22:52Z</time>
      </trkpt>
      <trkpt lat="42.98228" lon="-0.17558">
        <ele>940.49</ele>
        <time>2018-08-19T08:23:03Z</time>
      </trkpt>
      <trkpt lat="42.9824" lon="-0.17579">
        <ele>943.51</ele>
        <time>2018-08-19T08:23:15Z</time>
      </trkpt>
      <trkpt lat="42.98243" lon="-0.17604">
        <ele>943.73</ele>
        <time>2018-08-19T08:23:26Z</time>
      </trkpt>
      <trkpt lat="42.9825" lon="-0.17628">
        <ele>947.21</ele>
        <time>2018-08-19T08:23:38Z</time>
      </trkpt>
      <trkpt lat="42.98266" lon="-0.17641">
        <ele>950.22</ele>
        <time>2018-08-19T08:23:50Z</time>
      </trkpt>
      <trkpt lat="42.98283" lon="-0.17653">
        <ele>953.22</ele>
        <time>2018-08-19T08:24:02Z</time>
      </trkpt>
      <trkpt lat="42.98298" lon="-0.17669">
        <ele>956.21</ele>
        <time>2018-08-19T08:24:15Z</time>
      </trkpt>
      <trkpt lat="42.98291" lon="-0.17693">
        <ele>960.41</ele>
        <time>2018-08-19T08:24:32Z</time>
      </trkpt>
      <trkpt lat="42.98284" lon="-0.17717">
        <ele>965.51</ele>
        <time>2018-08-19T08:24:45Z</time>
      </trkpt>
      <trkpt lat="42.98279" lon="-0.17741">
        <ele>972.42</ele>
        <time>2018-08-19T08:24:59Z</time>
      </trkpt>
      <trkpt lat="42.98266" lon="-0.1776">
        <ele>975.42</ele>
        <time>2018-08-19T08:25:11Z</time>
      </trkpt>
      <trkpt lat="42.98257" lon="-0.17781">
        <ele>976.52</ele>
        <time>2018-08-19T08:25:25Z</time>
      </trkpt>
      <trkpt lat="42.98258" lon="-0.17806">
        <ele>977.52</ele>
        <time>2018-08-19T08:25:40Z</time>
      </trkpt>
      <trkpt lat="42.98256" lon="-0.17832">
        <ele>979.51</ele>
        <time>2018-08-19T08:25:55Z</time>
      </trkpt>
      <trkpt lat="42.98256" lon="-0.17857">
        <ele>981.61</ele>
        <time>2018-08-19T08:26:09Z</time>
      </trkpt>
      <trkpt lat="42.98257" lon="-0.17882">
        <ele>982.52</ele>
        <time>2018-08-19T08:26:23Z</time>
      </trkpt>
      <trkpt lat="42.98265" lon="-0.17906">
        <ele>984.43</ele>
        <time>2018-08-19T08:26:38Z</time>
      </trkpt>
      <trkpt lat="42.98276" lon="-0.17928">
        <ele>986.49</ele>
        <time>2018-08-19T08:26:52Z</time>
      </trkpt>
      <trkpt lat="42.98288" lon="-0.17946">
        <ele>989.43</ele>
        <time>2018-08-19T08:27:06Z</time>
      </trkpt>
      <trkpt lat="42.98298" lon="-0.17967">
        <ele>991.45</ele>
        <time>2018-08-19T08:27:20Z</time>
      </trkpt>
      <trkpt lat="42.98306" lon="-0.1799">
        <ele>995.49</ele>
        <time>2018-08-19T08:27:34Z</time>
      </trkpt>
      <trkpt lat="42.98314" lon="-0.18013">
        <ele>997.43</ele>
        <time>2018-08-19T08:27:48Z</time>
      </trkpt>
      <trkpt lat="42.9832" lon="-0.18037">
        <ele>999.43</ele>
        <time>2018-08-19T08:28:03Z</time>
      </trkpt>
      <trkpt lat="42.98327" lon="-0.1806">
        <ele>1001.51</ele>
        <time>2018-08-19T08:28:17Z</time>
      </trkpt>
      <trkpt lat="42.98335" lon="-0.18083">
        <ele>1004.49</ele>
        <time>2018-08-19T08:28:30Z</time>
      </trkpt>
      <trkpt lat="42.98344" lon="-0.18106">
        <ele>1007.22</ele>
        <time>2018-08-19T08:28:43Z</time>
      </trkpt>
      <trkpt lat="42.98352" lon="-0.18129">
        <ele>1011.43</ele>
        <time>2018-08-19T08:28:57Z</time>
      </trkpt>
      <trkpt lat="42.98364" lon="-0.18147">
        <ele>1015.51</ele>
        <time>2018-08-19T08:29:11Z</time>
      </trkpt>
      <trkpt lat="42.98381" lon="-0.1816">
        <ele>1017.49</ele>
        <time>2018-08-19T08:29:24Z</time>
      </trkpt>
      <trkpt lat="42.98395" lon="-0.18176">
        <ele>1022.21</ele>
        <time>2018-08-19T08:29:37Z</time>
      </trkpt>
      <trkpt lat="42.9841" lon="-0.1819">
        <ele>1025.19</ele>
        <time>2018-08-19T08:29:49Z</time>
      </trkpt>
      <trkpt lat="42.98426" lon="-0.18202">
        <ele>1030.4</ele>
        <time>2018-08-19T08:30:01Z</time>
      </trkpt>
      <trkpt lat="42.98443" lon="-0.1821">
        <ele>1032.52</ele>
        <time>2018-08-19T08:30:11Z</time>
      </trkpt>
      <trkpt lat="42.9846" lon="-0.18224">
        <ele>1034.51</ele>
        <time>2018-08-19T08:30:21Z</time>
      </trkpt>
      <trkpt lat="42.98466" lon="-0.18248">
        <ele>1037.49</ele>
        <time>2018-08-19T08:30:32Z</time>
      </trkpt>
      <trkpt lat="42.98475" lon="-0.18271">
        <ele>1040.49</ele>
        <time>2018-08-19T08:30:41Z</time>
      </trkpt>
      <trkpt lat="42.98488" lon="-0.18289">
        <ele>1042.2</ele>
        <time>2018-08-19T08:30:50Z</time>
      </trkpt>
      <trkpt lat="42.98501" lon="-0.18308">
        <ele>1045.22</ele>
        <time>2018-08-19T08:31:00Z</time>
      </trkpt>
      <trkpt lat="42.98516" lon="-0.18322">
        <ele>1047.52</ele>
        <time>2018-08-19T08:32:52Z</time>
      </trkpt>
      <trkpt lat="42.98528" lon="-0.18343">
        <ele>1049.49</ele>
        <time>2018-08-19T08:37:08Z</time>
      </trkpt>
      <trkpt lat="42.9854" lon="-0.18364">
        <ele>1050.61</ele>
        <time>2018-08-19T08:37:19Z</time>
      </trkpt>
      <trkpt lat="42.98551" lon="-0.18385">
        <ele>1053.28</ele>
        <time>2018-08-19T08:37:31Z</time>
      </trkpt>
      <trkpt lat="42.9856" lon="-0.18407">
        <ele>1056.82</ele>
        <time>2018-08-19T08:37:46Z</time>
      </trkpt>
      <trkpt lat="42.98571" lon="-0.18428">
        <ele>1056.81</ele>
        <time>2018-08-19T08:37:59Z</time>
      </trkpt>
      <trkpt lat="42.98587" lon="-0.18414">
        <ele>1060.31</ele>
        <time>2018-08-19T08:38:16Z</time>
      </trkpt>
      <trkpt lat="42.98588" lon="-0.18388">
        <ele>1065.51</ele>
        <time>2018-08-19T08:38:28Z</time>
      </trkpt>
      <trkpt lat="42.98588" lon="-0.18363">
        <ele>1066.43</ele>
        <time>2018-08-19T08:38:39Z</time>
      </trkpt>
      <trkpt lat="42.98592" lon="-0.18339">
        <ele>1067.31</ele>
        <time>2018-08-19T08:38:50Z</time>
      </trkpt>
      <trkpt lat="42.98591" lon="-0.18313">
        <ele>1069.49</ele>
        <time>2018-08-19T08:39:04Z</time>
      </trkpt>
      <trkpt lat="42.98592" lon="-0.18287">
        <ele>1070.52</ele>
        <time>2018-08-19T08:39:15Z</time>
      </trkpt>
      <trkpt lat="42.98594" lon="-0.18261">
        <ele>1070.61</ele>
        <time>2018-08-19T08:39:23Z</time>
      </trkpt>
      <trkpt lat="42.98595" lon="-0.18233">
        <ele>1070.52</ele>
        <time>2018-08-19T08:39:29Z</time>
      </trkpt>
      <trkpt lat="42.98599" lon="-0.18208">
        <ele>1068.64</ele>
        <time>2018-08-19T08:39:33Z</time>
      </trkpt>
      <trkpt lat="42.98609" lon="-0.18187">
        <ele>1069.52</ele>
        <time>2018-08-19T08:39:41Z</time>
      </trkpt>
      <trkpt lat="42.98622" lon="-0.18167">
        <ele>1069.52</ele>
        <time>2018-08-19T08:39:50Z</time>
      </trkpt>
      <trkpt lat="42.98633" lon="-0.18145">
        <ele>1071.43</ele>
        <time>2018-08-19T08:40:00Z</time>
      </trkpt>
      <trkpt lat="42.98644" lon="-0.18124">
        <ele>1072.52</ele>
        <time>2018-08-19T08:40:10Z</time>
      </trkpt>
      <trkpt lat="42.98654" lon="-0.181">
        <ele>1074.22</ele>
        <time>2018-08-19T08:40:22Z</time>
      </trkpt>
      <trkpt lat="42.98669" lon="-0.18116">
        <ele>1081.52</ele>
        <time>2018-08-19T08:40:52Z</time>
      </trkpt>
      <trkpt lat="42.98673" lon="-0.18141">
        <ele>1083.52</ele>
        <time>2018-08-19T08:41:05Z</time>
      </trkpt>
      <trkpt lat="42.98672" lon="-0.18166">
        <ele>1085.22</ele>
        <time>2018-08-19T08:41:18Z</time>
      </trkpt>
      <trkpt lat="42.98671" lon="-0.18192">
        <ele>1087.52</ele>
        <time>2018-08-19T08:41:30Z</time>
      </trkpt>
      <trkpt lat="42.98672" lon="-0.18219">
        <ele>1087.52</ele>
        <time>2018-08-19T08:41:41Z</time>
      </trkpt>
      <trkpt lat="42.98677" lon="-0.18244">
        <ele>1088.52</ele>
        <time>2018-08-19T08:41:53Z</time>
      </trkpt>
      <trkpt lat="42.98686" lon="-0.18267">
        <ele>1090.79</ele>
        <time>2018-08-19T08:42:04Z</time>
      </trkpt>
      <trkpt lat="42.98689" lon="-0.18292">
        <ele>1094.21</ele>
        <time>2018-08-19T08:42:16Z</time>
      </trkpt>
      <trkpt lat="42.98694" lon="-0.18316">
        <ele>1096.46</ele>
        <time>2018-08-19T08:42:29Z</time>
      </trkpt>
      <trkpt lat="42.9871" lon="-0.18331">
        <ele>1099.49</ele>
        <time>2018-08-19T08:42:41Z</time>
      </trkpt>
      <trkpt lat="42.98704" lon="-0.18355">
        <ele>1103.49</ele>
        <time>2018-08-19T08:42:55Z</time>
      </trkpt>
      <trkpt lat="42.98691" lon="-0.18372">
        <ele>1103.52</ele>
        <time>2018-08-19T08:43:08Z</time>
      </trkpt>
      <trkpt lat="42.98683" lon="-0.18396">
        <ele>1103.43</ele>
        <time>2018-08-19T08:44:02Z</time>
      </trkpt>
      <trkpt lat="42.98674" lon="-0.18419">
        <ele>1104.46</ele>
        <time>2018-08-19T08:44:09Z</time>
      </trkpt>
      <trkpt lat="42.9867" lon="-0.18444">
        <ele>1104.52</ele>
        <time>2018-08-19T08:44:17Z</time>
      </trkpt>
      <trkpt lat="42.98673" lon="-0.18469">
        <ele>1106.45</ele>
        <time>2018-08-19T08:44:25Z</time>
      </trkpt>
      <trkpt lat="42.9868" lon="-0.18493">
        <ele>1108.52</ele>
        <time>2018-08-19T08:44:38Z</time>
      </trkpt>
      <trkpt lat="42.9869" lon="-0.18515">
        <ele>1110.49</ele>
        <time>2018-08-19T08:44:52Z</time>
      </trkpt>
      <trkpt lat="42.98701" lon="-0.18535">
        <ele>1112.51</ele>
        <time>2018-08-19T08:45:03Z</time>
      </trkpt>
      <trkpt lat="42.98706" lon="-0.18559">
        <ele>1115.43</ele>
        <time>2018-08-19T08:45:17Z</time>
      </trkpt>
      <trkpt lat="42.987" lon="-0.18584">
        <ele>1118.21</ele>
        <time>2018-08-19T08:45:29Z</time>
      </trkpt>
      <trkpt lat="42.98711" lon="-0.18607">
        <ele>1120.43</ele>
        <time>2018-08-19T08:45:41Z</time>
      </trkpt>
      <trkpt lat="42.98724" lon="-0.18626">
        <ele>1122.52</ele>
        <time>2018-08-19T08:45:53Z</time>
      </trkpt>
      <trkpt lat="42.9871" lon="-0.18645">
        <ele>1123.54</ele>
        <time>2018-08-19T08:46:05Z</time>
      </trkpt>
      <trkpt lat="42.98698" lon="-0.18664">
        <ele>1121.82</ele>
        <time>2018-08-19T08:46:15Z</time>
      </trkpt>
      <trkpt lat="42.98684" lon="-0.18682">
        <ele>1123.49</ele>
        <time>2018-08-19T08:46:26Z</time>
      </trkpt>
      <trkpt lat="42.9867" lon="-0.187">
        <ele>1124.52</ele>
        <time>2018-08-19T08:46:38Z</time>
      </trkpt>
      <trkpt lat="42.98659" lon="-0.18722">
        <ele>1126.43</ele>
        <time>2018-08-19T08:46:51Z</time>
      </trkpt>
      <trkpt lat="42.9865" lon="-0.18745">
        <ele>1128.52</ele>
        <time>2018-08-19T08:47:03Z</time>
      </trkpt>
      <trkpt lat="42.9864" lon="-0.18767">
        <ele>1130.52</ele>
        <time>2018-08-19T08:47:14Z</time>
      </trkpt>
      <trkpt lat="42.98659" lon="-0.18764">
        <ele>1132.52</ele>
        <time>2018-08-19T08:47:30Z</time>
      </trkpt>
      <trkpt lat="42.98671" lon="-0.18744">
        <ele>1133.52</ele>
        <time>2018-08-19T08:47:41Z</time>
      </trkpt>
      <trkpt lat="42.98683" lon="-0.18726">
        <ele>1135.52</ele>
        <time>2018-08-19T08:47:54Z</time>
      </trkpt>
      <trkpt lat="42.98688" lon="-0.18751">
        <ele>1141.51</ele>
        <time>2018-08-19T08:48:24Z</time>
      </trkpt>
      <trkpt lat="42.98682" lon="-0.18774">
        <ele>1143.49</ele>
        <time>2018-08-19T08:48:35Z</time>
      </trkpt>
      <trkpt lat="42.98677" lon="-0.18799">
        <ele>1145.22</ele>
        <time>2018-08-19T08:48:48Z</time>
      </trkpt>
      <trkpt lat="42.9867" lon="-0.18823">
        <ele>1148.22</ele>
        <time>2018-08-19T08:49:01Z</time>
      </trkpt>
      <trkpt lat="42.98668" lon="-0.18848">
        <ele>1149.52</ele>
        <time>2018-08-19T08:49:14Z</time>
      </trkpt>
      <trkpt lat="42.98663" lon="-0.18873">
        <ele>1153.42</ele>
        <time>2018-08-19T08:49:27Z</time>
      </trkpt>
      <trkpt lat="42.9866" lon="-0.18898">
        <ele>1155.52</ele>
        <time>2018-08-19T08:49:40Z</time>
      </trkpt>
      <trkpt lat="42.9866" lon="-0.18923">
        <ele>1157.52</ele>
        <time>2018-08-19T08:49:53Z</time>
      </trkpt>
      <trkpt lat="42.98662" lon="-0.18948">
        <ele>1159.58</ele>
        <time>2018-08-19T08:50:07Z</time>
      </trkpt>
      <trkpt lat="42.98663" lon="-0.18975">
        <ele>1161.52</ele>
        <time>2018-08-19T08:50:20Z</time>
      </trkpt>
      <trkpt lat="42.98664" lon="-0.19">
        <ele>1162.52</ele>
        <time>2018-08-19T08:50:33Z</time>
      </trkpt>
      <trkpt lat="42.98681" lon="-0.18989">
        <ele>1167.52</ele>
        <time>2018-08-19T08:51:01Z</time>
      </trkpt>
      <trkpt lat="42.98692" lon="-0.18968">
        <ele>1169.25</ele>
        <time>2018-08-19T08:51:15Z</time>
      </trkpt>
      <trkpt lat="42.98703" lon="-0.18948">
        <ele>1172.22</ele>
        <time>2018-08-19T08:51:28Z</time>
      </trkpt>
      <trkpt lat="42.98717" lon="-0.18965">
        <ele>1177.22</ele>
        <time>2018-08-19T08:51:51Z</time>
      </trkpt>
      <trkpt lat="42.98717" lon="-0.18991">
        <ele>1179.43</ele>
        <time>2018-08-19T08:52:04Z</time>
      </trkpt>
      <trkpt lat="42.9872" lon="-0.19017">
        <ele>1180.8</ele>
        <time>2018-08-19T08:52:17Z</time>
      </trkpt>
      <trkpt lat="42.98723" lon="-0.19043">
        <ele>1183.49</ele>
        <time>2018-08-19T08:52:30Z</time>
      </trkpt>
      <trkpt lat="42.98716" lon="-0.19067">
        <ele>1186.51</ele>
        <time>2018-08-19T08:52:42Z</time>
      </trkpt>
      <trkpt lat="42.98716" lon="-0.19092">
        <ele>1189.52</ele>
        <time>2018-08-19T08:52:58Z</time>
      </trkpt>
      <trkpt lat="42.98732" lon="-0.19078">
        <ele>1191.52</ele>
        <time>2018-08-19T08:53:11Z</time>
      </trkpt>
      <trkpt lat="42.98747" lon="-0.19064">
        <ele>1194.43</ele>
        <time>2018-08-19T08:53:23Z</time>
      </trkpt>
      <trkpt lat="42.98756" lon="-0.19086">
        <ele>1200.52</ele>
        <time>2018-08-19T08:53:58Z</time>
      </trkpt>
      <trkpt lat="42.9876" lon="-0.19113">
        <ele>1202.49</ele>
        <time>2018-08-19T08:54:12Z</time>
      </trkpt>
      <trkpt lat="42.98754" lon="-0.19137">
        <ele>1204.52</ele>
        <time>2018-08-19T08:54:27Z</time>
      </trkpt>
      <trkpt lat="42.98773" lon="-0.19141">
        <ele>1210.43</ele>
        <time>2018-08-19T09:11:30Z</time>
      </trkpt>
      <trkpt lat="42.98792" lon="-0.1914">
        <ele>1211.5</ele>
        <time>2018-08-19T09:11:40Z</time>
      </trkpt>
      <trkpt lat="42.98811" lon="-0.19145">
        <ele>1213.52</ele>
        <time>2018-08-19T09:11:51Z</time>
      </trkpt>
      <trkpt lat="42.9883" lon="-0.19141">
        <ele>1216.42</ele>
        <time>2018-08-19T09:12:01Z</time>
      </trkpt>
      <trkpt lat="42.98848" lon="-0.19136">
        <ele>1219.49</ele>
        <time>2018-08-19T09:12:13Z</time>
      </trkpt>
      <trkpt lat="42.98866" lon="-0.19138">
        <ele>1220.51</ele>
        <time>2018-08-19T09:12:26Z</time>
      </trkpt>
      <trkpt lat="42.98882" lon="-0.1915">
        <ele>1222.52</ele>
        <time>2018-08-19T09:12:38Z</time>
      </trkpt>
      <trkpt lat="42.98895" lon="-0.19169">
        <ele>1224.51</ele>
        <time>2018-08-19T09:12:50Z</time>
      </trkpt>
      <trkpt lat="42.98904" lon="-0.19193">
        <ele>1228.52</ele>
        <time>2018-08-19T09:13:02Z</time>
      </trkpt>
      <trkpt lat="42.98917" lon="-0.19212">
        <ele>1230.52</ele>
        <time>2018-08-19T09:13:14Z</time>
      </trkpt>
      <trkpt lat="42.98934" lon="-0.19221">
        <ele>1231.43</ele>
        <time>2018-08-19T09:13:38Z</time>
      </trkpt>
      <trkpt lat="42.98951" lon="-0.19213">
        <ele>1232.45</ele>
        <time>2018-08-19T09:13:48Z</time>
      </trkpt>
      <trkpt lat="42.98968" lon="-0.19201">
        <ele>1235.22</ele>
        <time>2018-08-19T09:14:00Z</time>
      </trkpt>
      <trkpt lat="42.98985" lon="-0.19191">
        <ele>1238.51</ele>
        <time>2018-08-19T09:14:12Z</time>
      </trkpt>
      <trkpt lat="42.98997" lon="-0.19172">
        <ele>1240.49</ele>
        <time>2018-08-19T09:14:24Z</time>
      </trkpt>
      <trkpt lat="42.99012" lon="-0.19154">
        <ele>1243.22</ele>
        <time>2018-08-19T09:14:37Z</time>
      </trkpt>
      <trkpt lat="42.99026" lon="-0.19138">
        <ele>1245.49</ele>
        <time>2018-08-19T09:14:48Z</time>
      </trkpt>
      <trkpt lat="42.99042" lon="-0.19123">
        <ele>1248.22</ele>
        <time>2018-08-19T09:15:01Z</time>
      </trkpt>
      <trkpt lat="42.99058" lon="-0.19111">
        <ele>1250.49</ele>
        <time>2018-08-19T09:15:13Z</time>
      </trkpt>
      <trkpt lat="42.99077" lon="-0.19103">
        <ele>1251.52</ele>
        <time>2018-08-19T09:15:25Z</time>
      </trkpt>
      <trkpt lat="42.99093" lon="-0.1909">
        <ele>1255.43</ele>
        <time>2018-08-19T09:15:37Z</time>
      </trkpt>
      <trkpt lat="42.99103" lon="-0.19069">
        <ele>1257.5</ele>
        <time>2018-08-19T09:15:48Z</time>
      </trkpt>
      <trkpt lat="42.99109" lon="-0.19044">
        <ele>1260.28</ele>
        <time>2018-08-19T09:16:00Z</time>
      </trkpt>
      <trkpt lat="42.99118" lon="-0.19021">
        <ele>1262.43</ele>
        <time>2018-08-19T09:16:12Z</time>
      </trkpt>
      <trkpt lat="42.99135" lon="-0.19011">
        <ele>1264.43</ele>
        <time>2018-08-19T09:16:26Z</time>
      </trkpt>
      <trkpt lat="42.99153" lon="-0.19004">
        <ele>1266.43</ele>
        <time>2018-08-19T09:16:39Z</time>
      </trkpt>
      <trkpt lat="42.99167" lon="-0.18988">
        <ele>1269.19</ele>
        <time>2018-08-19T09:16:50Z</time>
      </trkpt>
      <trkpt lat="42.99171" lon="-0.18964">
        <ele>1270.49</ele>
        <time>2018-08-19T09:17:01Z</time>
      </trkpt>
      <trkpt lat="42.99168" lon="-0.18938">
        <ele>1272.49</ele>
        <time>2018-08-19T09:17:11Z</time>
      </trkpt>
      <trkpt lat="42.99167" lon="-0.18913">
        <ele>1274.51</ele>
        <time>2018-08-19T09:17:23Z</time>
      </trkpt>
      <trkpt lat="42.9917" lon="-0.18888">
        <ele>1276.52</ele>
        <time>2018-08-19T09:17:34Z</time>
      </trkpt>
      <trkpt lat="42.99167" lon="-0.18864">
        <ele>1278.49</ele>
        <time>2018-08-19T09:17:46Z</time>
      </trkpt>
      <trkpt lat="42.99163" lon="-0.18839">
        <ele>1281.43</ele>
        <time>2018-08-19T09:17:58Z</time>
      </trkpt>
      <trkpt lat="42.99165" lon="-0.18814">
        <ele>1283.52</ele>
        <time>2018-08-19T09:18:10Z</time>
      </trkpt>
      <trkpt lat="42.99167" lon="-0.18789">
        <ele>1285.52</ele>
        <time>2018-08-19T09:18:21Z</time>
      </trkpt>
      <trkpt lat="42.99174" lon="-0.18764">
        <ele>1287.49</ele>
        <time>2018-08-19T09:18:35Z</time>
      </trkpt>
      <trkpt lat="42.99183" lon="-0.1874">
        <ele>1290.43</ele>
        <time>2018-08-19T09:18:47Z</time>
      </trkpt>
      <trkpt lat="42.99193" lon="-0.18719">
        <ele>1293.49</ele>
        <time>2018-08-19T09:19:00Z</time>
      </trkpt>
      <trkpt lat="42.99204" lon="-0.18698">
        <ele>1295.22</ele>
        <time>2018-08-19T09:19:13Z</time>
      </trkpt>
      <trkpt lat="42.99217" lon="-0.18677">
        <ele>1297.23</ele>
        <time>2018-08-19T09:19:25Z</time>
      </trkpt>
      <trkpt lat="42.99227" lon="-0.18657">
        <ele>1300.21</ele>
        <time>2018-08-19T09:19:37Z</time>
      </trkpt>
      <trkpt lat="42.99239" lon="-0.18638">
        <ele>1301.52</ele>
        <time>2018-08-19T09:19:48Z</time>
      </trkpt>
      <trkpt lat="42.9925" lon="-0.18618">
        <ele>1303.52</ele>
        <time>2018-08-19T09:20:00Z</time>
      </trkpt>
      <trkpt lat="42.99251" lon="-0.18592">
        <ele>1305.52</ele>
        <time>2018-08-19T09:20:12Z</time>
      </trkpt>
      <trkpt lat="42.99269" lon="-0.186">
        <ele>1308.51</ele>
        <time>2018-08-19T09:20:35Z</time>
      </trkpt>
      <trkpt lat="42.99268" lon="-0.18626">
        <ele>1310.51</ele>
        <time>2018-08-19T09:20:48Z</time>
      </trkpt>
      <trkpt lat="42.99273" lon="-0.18651">
        <ele>1311.52</ele>
        <time>2018-08-19T09:20:59Z</time>
      </trkpt>
      <trkpt lat="42.99284" lon="-0.18673">
        <ele>1314.42</ele>
        <time>2018-08-19T09:21:11Z</time>
      </trkpt>
      <trkpt lat="42.99291" lon="-0.18696">
        <ele>1316.43</ele>
        <time>2018-08-19T09:21:23Z</time>
      </trkpt>
      <trkpt lat="42.99294" lon="-0.18722">
        <ele>1319.52</ele>
        <time>2018-08-19T09:21:36Z</time>
      </trkpt>
      <trkpt lat="42.99302" lon="-0.18745">
        <ele>1321.52</ele>
        <time>2018-08-19T09:21:49Z</time>
      </trkpt>
      <trkpt lat="42.9931" lon="-0.18768">
        <ele>1323.52</ele>
        <time>2018-08-19T09:22:01Z</time>
      </trkpt>
      <trkpt lat="42.99318" lon="-0.18791">
        <ele>1325.49</ele>
        <time>2018-08-19T09:22:13Z</time>
      </trkpt>
      <trkpt lat="42.99325" lon="-0.18813">
        <ele>1327.52</ele>
        <time>2018-08-19T09:22:25Z</time>
      </trkpt>
      <trkpt lat="42.99332" lon="-0.18837">
        <ele>1329.52</ele>
        <time>2018-08-19T09:22:38Z</time>
      </trkpt>
      <trkpt lat="42.99334" lon="-0.18864">
        <ele>1333.22</ele>
        <time>2018-08-19T09:22:51Z</time>
      </trkpt>
      <trkpt lat="42.99333" lon="-0.18889">
        <ele>1334.51</ele>
        <time>2018-08-19T09:23:03Z</time>
      </trkpt>
      <trkpt lat="42.99337" lon="-0.18914">
        <ele>1337.24</ele>
        <time>2018-08-19T09:23:15Z</time>
      </trkpt>
      <trkpt lat="42.99343" lon="-0.18939">
        <ele>1339.43</ele>
        <time>2018-08-19T09:23:28Z</time>
      </trkpt>
      <trkpt lat="42.99348" lon="-0.18964">
        <ele>1341.49</ele>
        <time>2018-08-19T09:23:40Z</time>
      </trkpt>
      <trkpt lat="42.99349" lon="-0.18991">
        <ele>1343.43</ele>
        <time>2018-08-19T09:23:52Z</time>
      </trkpt>
      <trkpt lat="42.99343" lon="-0.19014">
        <ele>1345.22</ele>
        <time>2018-08-19T09:24:04Z</time>
      </trkpt>
      <trkpt lat="42.99339" lon="-0.1904">
        <ele>1348.22</ele>
        <time>2018-08-19T09:24:16Z</time>
      </trkpt>
      <trkpt lat="42.99338" lon="-0.19065">
        <ele>1350.52</ele>
        <time>2018-08-19T09:24:28Z</time>
      </trkpt>
      <trkpt lat="42.9933" lon="-0.1909">
        <ele>1353.19</ele>
        <time>2018-08-19T09:24:41Z</time>
      </trkpt>
      <trkpt lat="42.99324" lon="-0.19114">
        <ele>1354.52</ele>
        <time>2018-08-19T09:24:53Z</time>
      </trkpt>
      <trkpt lat="42.99324" lon="-0.19141">
        <ele>1356.29</ele>
        <time>2018-08-19T09:25:05Z</time>
      </trkpt>
      <trkpt lat="42.99323" lon="-0.19167">
        <ele>1358.45</ele>
        <time>2018-08-19T09:25:16Z</time>
      </trkpt>
      <trkpt lat="42.99319" lon="-0.19191">
        <ele>1361.49</ele>
        <time>2018-08-19T09:25:27Z</time>
      </trkpt>
      <trkpt lat="42.99307" lon="-0.19211">
        <ele>1362.44</ele>
        <time>2018-08-19T09:25:39Z</time>
      </trkpt>
      <trkpt lat="42.993" lon="-0.19235">
        <ele>1364.22</ele>
        <time>2018-08-19T09:25:51Z</time>
      </trkpt>
      <trkpt lat="42.99294" lon="-0.19259">
        <ele>1366.28</ele>
        <time>2018-08-19T09:26:02Z</time>
      </trkpt>
      <trkpt lat="42.993" lon="-0.19283">
        <ele>1365.52</ele>
        <time>2018-08-19T09:26:11Z</time>
      </trkpt>
      <trkpt lat="42.99312" lon="-0.19301">
        <ele>1366.52</ele>
        <time>2018-08-19T09:28:34Z</time>
      </trkpt>
      <trkpt lat="42.99292" lon="-0.19306">
        <ele>1364.82</ele>
        <time>2018-08-19T09:35:08Z</time>
      </trkpt>
      <trkpt lat="42.99273" lon="-0.19324">
        <ele>1361.83</ele>
        <time>2018-08-19T09:35:13Z</time>
      </trkpt>
      <trkpt lat="42.99259" lon="-0.19346">
        <ele>1360.82</ele>
        <time>2018-08-19T09:35:17Z</time>
      </trkpt>
      <trkpt lat="42.99245" lon="-0.19371">
        <ele>1359.91</ele>
        <time>2018-08-19T09:35:21Z</time>
      </trkpt>
      <trkpt lat="42.9923" lon="-0.1939">
        <ele>1359.53</ele>
        <time>2018-08-19T09:35:24Z</time>
      </trkpt>
      <trkpt lat="42.99215" lon="-0.19409">
        <ele>1358.55</ele>
        <time>2018-08-19T09:35:27Z</time>
      </trkpt>
      <trkpt lat="42.99205" lon="-0.19433">
        <ele>1356.85</ele>
        <time>2018-08-19T09:35:30Z</time>
      </trkpt>
      <trkpt lat="42.99205" lon="-0.19461">
        <ele>1356.53</ele>
        <time>2018-08-19T09:35:33Z</time>
      </trkpt>
      <trkpt lat="42.99211" lon="-0.19487">
        <ele>1356.52</ele>
        <time>2018-08-19T09:35:36Z</time>
      </trkpt>
      <trkpt lat="42.99218" lon="-0.19511">
        <ele>1356.52</ele>
        <time>2018-08-19T09:35:39Z</time>
      </trkpt>
      <trkpt lat="42.99223" lon="-0.19537">
        <ele>1356.52</ele>
        <time>2018-08-19T09:35:42Z</time>
      </trkpt>
      <trkpt lat="42.99229" lon="-0.19563">
        <ele>1355.61</ele>
        <time>2018-08-19T09:35:45Z</time>
      </trkpt>
      <trkpt lat="42.99235" lon="-0.19592">
        <ele>1357.42</ele>
        <time>2018-08-19T09:35:49Z</time>
      </trkpt>
      <trkpt lat="42.9924" lon="-0.1962">
        <ele>1360.19</ele>
        <time>2018-08-19T09:35:53Z</time>
      </trkpt>
      <trkpt lat="42.99241" lon="-0.19646">
        <ele>1361.51</ele>
        <time>2018-08-19T09:35:58Z</time>
      </trkpt>
      <trkpt lat="42.99243" lon="-0.19673">
        <ele>1361.52</ele>
        <time>2018-08-19T09:36:04Z</time>
      </trkpt>
      <trkpt lat="42.99245" lon="-0.19701">
        <ele>1362.51</ele>
        <time>2018-08-19T09:36:10Z</time>
      </trkpt>
      <trkpt lat="42.99248" lon="-0.19728">
        <ele>1361.61</ele>
        <time>2018-08-19T09:36:15Z</time>
      </trkpt>
      <trkpt lat="42.99251" lon="-0.19754">
        <ele>1363.49</ele>
        <time>2018-08-19T09:36:20Z</time>
      </trkpt>
      <trkpt lat="42.99253" lon="-0.19781">
        <ele>1363.52</ele>
        <time>2018-08-19T09:36:25Z</time>
      </trkpt>
      <trkpt lat="42.99253" lon="-0.19807">
        <ele>1362.59</ele>
        <time>2018-08-19T09:36:30Z</time>
      </trkpt>
      <trkpt lat="42.99251" lon="-0.19832">
        <ele>1361.61</ele>
        <time>2018-08-19T09:36:35Z</time>
      </trkpt>
      <trkpt lat="42.99247" lon="-0.1986">
        <ele>1362.52</ele>
        <time>2018-08-19T09:36:41Z</time>
      </trkpt>
      <trkpt lat="42.99241" lon="-0.19887">
        <ele>1361.82</ele>
        <time>2018-08-19T09:36:47Z</time>
      </trkpt>
      <trkpt lat="42.99232" lon="-0.1991">
        <ele>1362.5</ele>
        <time>2018-08-19T09:36:52Z</time>
      </trkpt>
      <trkpt lat="42.99219" lon="-0.19929">
        <ele>1363.43</ele>
        <time>2018-08-19T09:36:57Z</time>
      </trkpt>
      <trkpt lat="42.99207" lon="-0.1995">
        <ele>1364.49</ele>
        <time>2018-08-19T09:37:02Z</time>
      </trkpt>
      <trkpt lat="42.992" lon="-0.19974">
        <ele>1366.49</ele>
        <time>2018-08-19T09:37:07Z</time>
      </trkpt>
      <trkpt lat="42.99193" lon="-0.19999">
        <ele>1365.53</ele>
        <time>2018-08-19T09:37:12Z</time>
      </trkpt>
      <trkpt lat="42.99189" lon="-0.20024">
        <ele>1366.52</ele>
        <time>2018-08-19T09:37:17Z</time>
      </trkpt>
      <trkpt lat="42.99185" lon="-0.20051">
        <ele>1366.52</ele>
        <time>2018-08-19T09:37:22Z</time>
      </trkpt>
      <trkpt lat="42.99184" lon="-0.20079">
        <ele>1366.52</ele>
        <time>2018-08-19T09:37:28Z</time>
      </trkpt>
      <trkpt lat="42.99187" lon="-0.20106">
        <ele>1366.52</ele>
        <time>2018-08-19T09:37:34Z</time>
      </trkpt>
      <trkpt lat="42.99195" lon="-0.20132">
        <ele>1366.52</ele>
        <time>2018-08-19T09:37:40Z</time>
      </trkpt>
      <trkpt lat="42.99196" lon="-0.20161">
        <ele>1366.52</ele>
        <time>2018-08-19T09:37:46Z</time>
      </trkpt>
      <trkpt lat="42.99188" lon="-0.20186">
        <ele>1366.52</ele>
        <time>2018-08-19T09:37:52Z</time>
      </trkpt>
      <trkpt lat="42.99179" lon="-0.20211">
        <ele>1366.52</ele>
        <time>2018-08-19T09:37:58Z</time>
      </trkpt>
      <trkpt lat="42.99168" lon="-0.20232">
        <ele>1367.52</ele>
        <time>2018-08-19T09:38:04Z</time>
      </trkpt>
      <trkpt lat="42.99158" lon="-0.20253">
        <ele>1368.49</ele>
        <time>2018-08-19T09:38:10Z</time>
      </trkpt>
      <trkpt lat="42.99144" lon="-0.20273">
        <ele>1368.52</ele>
        <time>2018-08-19T09:38:17Z</time>
      </trkpt>
      <trkpt lat="42.99135" lon="-0.20294">
        <ele>1369.52</ele>
        <time>2018-08-19T09:38:52Z</time>
      </trkpt>
      <trkpt lat="42.99123" lon="-0.20316">
        <ele>1370.52</ele>
        <time>2018-08-19T09:39:05Z</time>
      </trkpt>
      <trkpt lat="42.99121" lon="-0.20342">
        <ele>1372.49</ele>
        <time>2018-08-19T09:39:16Z</time>
      </trkpt>
      <trkpt lat="42.99139" lon="-0.2035">
        <ele>1374.52</ele>
        <time>2018-08-19T09:39:29Z</time>
      </trkpt>
      <trkpt lat="42.99158" lon="-0.2035">
        <ele>1376.19</ele>
        <time>2018-08-19T09:39:39Z</time>
      </trkpt>
      <trkpt lat="42.99174" lon="-0.20364">
        <ele>1378.49</ele>
        <time>2018-08-19T09:39:50Z</time>
      </trkpt>
      <trkpt lat="42.99187" lon="-0.20384">
        <ele>1381.43</ele>
        <time>2018-08-19T09:40:02Z</time>
      </trkpt>
      <trkpt lat="42.99204" lon="-0.20392">
        <ele>1385.44</ele>
        <time>2018-08-19T09:40:14Z</time>
      </trkpt>
      <trkpt lat="42.99221" lon="-0.20404">
        <ele>1389.21</ele>
        <time>2018-08-19T09:40:25Z</time>
      </trkpt>
      <trkpt lat="42.99239" lon="-0.20416">
        <ele>1388.61</ele>
        <time>2018-08-19T09:40:37Z</time>
      </trkpt>
      <trkpt lat="42.99253" lon="-0.20433">
        <ele>1392.43</ele>
        <time>2018-08-19T09:40:49Z</time>
      </trkpt>
      <trkpt lat="42.99266" lon="-0.20452">
        <ele>1394.73</ele>
        <time>2018-08-19T09:41:02Z</time>
      </trkpt>
      <trkpt lat="42.9928" lon="-0.20467">
        <ele>1393.52</ele>
        <time>2018-08-19T09:41:14Z</time>
      </trkpt>
      <trkpt lat="42.99299" lon="-0.20472">
        <ele>1396.42</ele>
        <time>2018-08-19T09:41:26Z</time>
      </trkpt>
      <trkpt lat="42.99318" lon="-0.20473">
        <ele>1398.72</ele>
        <time>2018-08-19T09:41:37Z</time>
      </trkpt>
      <trkpt lat="42.99336" lon="-0.2047">
        <ele>1402.52</ele>
        <time>2018-08-19T09:41:48Z</time>
      </trkpt>
      <trkpt lat="42.99356" lon="-0.20475">
        <ele>1400.85</ele>
        <time>2018-08-19T09:41:57Z</time>
      </trkpt>
      <trkpt lat="42.99371" lon="-0.20494">
        <ele>1396.15</ele>
        <time>2018-08-19T09:42:03Z</time>
      </trkpt>
      <trkpt lat="42.99382" lon="-0.20515">
        <ele>1394.55</ele>
        <time>2018-08-19T09:42:08Z</time>
      </trkpt>
      <trkpt lat="42.99391" lon="-0.20537">
        <ele>1394.61</ele>
        <time>2018-08-19T09:42:15Z</time>
      </trkpt>
      <trkpt lat="42.99402" lon="-0.2056">
        <ele>1395.52</ele>
        <time>2018-08-19T09:42:23Z</time>
      </trkpt>
      <trkpt lat="42.99415" lon="-0.20577">
        <ele>1396.52</ele>
        <time>2018-08-19T09:42:30Z</time>
      </trkpt>
      <trkpt lat="42.99432" lon="-0.20589">
        <ele>1397.52</ele>
        <time>2018-08-19T09:42:37Z</time>
      </trkpt>
      <trkpt lat="42.99449" lon="-0.20599">
        <ele>1398.52</ele>
        <time>2018-08-19T09:42:45Z</time>
      </trkpt>
      <trkpt lat="42.99469" lon="-0.20606">
        <ele>1399.52</ele>
        <time>2018-08-19T09:42:53Z</time>
      </trkpt>
      <trkpt lat="42.99487" lon="-0.20607">
        <ele>1401.51</ele>
        <time>2018-08-19T09:43:01Z</time>
      </trkpt>
      <trkpt lat="42.99505" lon="-0.20602">
        <ele>1403.15</ele>
        <time>2018-08-19T09:43:09Z</time>
      </trkpt>
      <trkpt lat="42.99522" lon="-0.20596">
        <ele>1404.76</ele>
        <time>2018-08-19T09:43:18Z</time>
      </trkpt>
      <trkpt lat="42.99537" lon="-0.2058">
        <ele>1407.41</ele>
        <time>2018-08-19T09:43:26Z</time>
      </trkpt>
      <trkpt lat="42.99551" lon="-0.20558">
        <ele>1408.25</ele>
        <time>2018-08-19T09:43:35Z</time>
      </trkpt>
      <trkpt lat="42.99557" lon="-0.20531">
        <ele>1407.82</ele>
        <time>2018-08-19T09:43:42Z</time>
      </trkpt>
      <trkpt lat="42.99572" lon="-0.20512">
        <ele>1407.82</ele>
        <time>2018-08-19T09:43:47Z</time>
      </trkpt>
      <trkpt lat="42.9959" lon="-0.20497">
        <ele>1407.47</ele>
        <time>2018-08-19T09:43:50Z</time>
      </trkpt>
      <trkpt lat="42.99609" lon="-0.20481">
        <ele>1407.52</ele>
        <time>2018-08-19T09:43:53Z</time>
      </trkpt>
      <trkpt lat="42.99627" lon="-0.20466">
        <ele>1406.82</ele>
        <time>2018-08-19T09:43:56Z</time>
      </trkpt>
      <trkpt lat="42.99638" lon="-0.20445">
        <ele>1404.92</ele>
        <time>2018-08-19T09:43:59Z</time>
      </trkpt>
      <trkpt lat="42.99658" lon="-0.2044">
        <ele>1401.67</ele>
        <time>2018-08-19T09:44:03Z</time>
      </trkpt>
      <trkpt lat="42.99677" lon="-0.20451">
        <ele>1400.53</ele>
        <time>2018-08-19T09:44:08Z</time>
      </trkpt>
      <trkpt lat="42.99698" lon="-0.2046">
        <ele>1399.61</ele>
        <time>2018-08-19T09:44:12Z</time>
      </trkpt>
      <trkpt lat="42.99717" lon="-0.20472">
        <ele>1398.82</ele>
        <time>2018-08-19T09:44:15Z</time>
      </trkpt>
      <trkpt lat="42.99737" lon="-0.20484">
        <ele>1397.82</ele>
        <time>2018-08-19T09:44:19Z</time>
      </trkpt>
      <trkpt lat="42.99756" lon="-0.2049">
        <ele>1398.23</ele>
        <time>2018-08-19T09:44:24Z</time>
      </trkpt>
      <trkpt lat="42.99777" lon="-0.20496">
        <ele>1398.52</ele>
        <time>2018-08-19T09:44:30Z</time>
      </trkpt>
      <trkpt lat="42.99798" lon="-0.20504">
        <ele>1399.51</ele>
        <time>2018-08-19T09:44:36Z</time>
      </trkpt>
      <trkpt lat="42.99816" lon="-0.20512">
        <ele>1399.52</ele>
        <time>2018-08-19T09:44:41Z</time>
      </trkpt>
      <trkpt lat="42.99836" lon="-0.20515">
        <ele>1399.55</ele>
        <time>2018-08-19T09:44:46Z</time>
      </trkpt>
      <trkpt lat="42.99855" lon="-0.20515">
        <ele>1398.55</ele>
        <time>2018-08-19T09:44:51Z</time>
      </trkpt>
      <trkpt lat="42.99874" lon="-0.20507">
        <ele>1399.52</ele>
        <time>2018-08-19T09:44:57Z</time>
      </trkpt>
      <trkpt lat="42.99892" lon="-0.20499">
        <ele>1399.52</ele>
        <time>2018-08-19T09:45:03Z</time>
      </trkpt>
      <trkpt lat="42.99897" lon="-0.20524">
        <ele>1399.46</ele>
        <time>2018-08-19T09:45:09Z</time>
      </trkpt>
      <trkpt lat="42.99891" lon="-0.20547">
        <ele>1400.52</ele>
        <time>2018-08-19T09:45:16Z</time>
      </trkpt>
      <trkpt lat="42.99886" lon="-0.20574">
        <ele>1400.52</ele>
        <time>2018-08-19T09:45:24Z</time>
      </trkpt>
      <trkpt lat="42.99883" lon="-0.206">
        <ele>1399.61</ele>
        <time>2018-08-19T09:45:30Z</time>
      </trkpt>
      <trkpt lat="42.99876" lon="-0.20629">
        <ele>1397.85</ele>
        <time>2018-08-19T09:45:36Z</time>
      </trkpt>
      <trkpt lat="42.99871" lon="-0.20657">
        <ele>1397.52</ele>
        <time>2018-08-19T09:45:40Z</time>
      </trkpt>
      <trkpt lat="42.99867" lon="-0.20684">
        <ele>1396.61</ele>
        <time>2018-08-19T09:45:43Z</time>
      </trkpt>
      <trkpt lat="42.99867" lon="-0.20713">
        <ele>1394.85</ele>
        <time>2018-08-19T09:45:46Z</time>
      </trkpt>
      <trkpt lat="42.99871" lon="-0.20741">
        <ele>1394.53</ele>
        <time>2018-08-19T09:45:49Z</time>
      </trkpt>
      <trkpt lat="42.99869" lon="-0.20766">
        <ele>1392.91</ele>
        <time>2018-08-19T09:45:52Z</time>
      </trkpt>
      <trkpt lat="42.99869" lon="-0.20795">
        <ele>1390.62</ele>
        <time>2018-08-19T09:45:56Z</time>
      </trkpt>
      <trkpt lat="42.99871" lon="-0.20821">
        <ele>1391.22</ele>
        <time>2018-08-19T09:46:00Z</time>
      </trkpt>
      <trkpt lat="42.99874" lon="-0.20848">
        <ele>1391.52</ele>
        <time>2018-08-19T09:46:04Z</time>
      </trkpt>
      <trkpt lat="42.99876" lon="-0.20873">
        <ele>1392.49</ele>
        <time>2018-08-19T09:46:08Z</time>
      </trkpt>
      <trkpt lat="42.99879" lon="-0.20897">
        <ele>1393.43</ele>
        <time>2018-08-19T09:46:14Z</time>
      </trkpt>
      <trkpt lat="42.99886" lon="-0.2092">
        <ele>1394.52</ele>
        <time>2018-08-19T09:46:24Z</time>
      </trkpt>
      <trkpt lat="42.99895" lon="-0.20943">
        <ele>1398.49</ele>
        <time>2018-08-19T09:46:35Z</time>
      </trkpt>
      <trkpt lat="42.99891" lon="-0.20967">
        <ele>1401.51</ele>
        <time>2018-08-19T09:46:50Z</time>
      </trkpt>
      <trkpt lat="42.99875" lon="-0.20987">
        <ele>1404.49</ele>
        <time>2018-08-19T09:47:04Z</time>
      </trkpt>
      <trkpt lat="42.99862" lon="-0.21007">
        <ele>1404.52</ele>
        <time>2018-08-19T09:47:11Z</time>
      </trkpt>
      <trkpt lat="42.99847" lon="-0.21024">
        <ele>1406.43</ele>
        <time>2018-08-19T09:47:17Z</time>
      </trkpt>
      <trkpt lat="42.99831" lon="-0.21038">
        <ele>1404.58</ele>
        <time>2018-08-19T09:47:22Z</time>
      </trkpt>
      <trkpt lat="42.9981" lon="-0.21048">
        <ele>1404.52</ele>
        <time>2018-08-19T09:47:27Z</time>
      </trkpt>
      <trkpt lat="42.99791" lon="-0.21055">
        <ele>1404.46</ele>
        <time>2018-08-19T09:47:32Z</time>
      </trkpt>
      <trkpt lat="42.99774" lon="-0.21062">
        <ele>1404.52</ele>
        <time>2018-08-19T09:47:38Z</time>
      </trkpt>
      <trkpt lat="42.99755" lon="-0.21069">
        <ele>1405.52</ele>
        <time>2018-08-19T09:47:46Z</time>
      </trkpt>
      <trkpt lat="42.99738" lon="-0.21076">
        <ele>1407.22</ele>
        <time>2018-08-19T09:47:53Z</time>
      </trkpt>
      <trkpt lat="42.99721" lon="-0.21089">
        <ele>1409.43</ele>
        <time>2018-08-19T09:48:01Z</time>
      </trkpt>
      <trkpt lat="42.99705" lon="-0.21103">
        <ele>1409.52</ele>
        <time>2018-08-19T09:48:10Z</time>
      </trkpt>
      <trkpt lat="42.99691" lon="-0.2112">
        <ele>1409.52</ele>
        <time>2018-08-19T09:48:18Z</time>
      </trkpt>
      <trkpt lat="42.99678" lon="-0.21142">
        <ele>1409.52</ele>
        <time>2018-08-19T09:48:24Z</time>
      </trkpt>
      <trkpt lat="42.99667" lon="-0.21163">
        <ele>1411.43</ele>
        <time>2018-08-19T09:48:30Z</time>
      </trkpt>
      <trkpt lat="42.99649" lon="-0.21177">
        <ele>1411.31</ele>
        <time>2018-08-19T09:48:37Z</time>
      </trkpt>
      <trkpt lat="42.99629" lon="-0.21183">
        <ele>1411.5</ele>
        <time>2018-08-19T09:48:45Z</time>
      </trkpt>
      <trkpt lat="42.99609" lon="-0.21182">
        <ele>1411.6</ele>
        <time>2018-08-19T09:48:53Z</time>
      </trkpt>
      <trkpt lat="42.99589" lon="-0.21178">
        <ele>1413.51</ele>
        <time>2018-08-19T09:49:03Z</time>
      </trkpt>
      <trkpt lat="42.99571" lon="-0.21172">
        <ele>1415.49</ele>
        <time>2018-08-19T09:49:13Z</time>
      </trkpt>
      <trkpt lat="42.99553" lon="-0.21169">
        <ele>1417.22</ele>
        <time>2018-08-19T09:49:22Z</time>
      </trkpt>
      <trkpt lat="42.99535" lon="-0.21165">
        <ele>1420.19</ele>
        <time>2018-08-19T09:49:30Z</time>
      </trkpt>
      <trkpt lat="42.99518" lon="-0.21159">
        <ele>1421.49</ele>
        <time>2018-08-19T09:49:38Z</time>
      </trkpt>
      <trkpt lat="42.99499" lon="-0.21154">
        <ele>1424.43</ele>
        <time>2018-08-19T09:49:50Z</time>
      </trkpt>
      <trkpt lat="42.99482" lon="-0.21141">
        <ele>1427.49</ele>
        <time>2018-08-19T09:50:04Z</time>
      </trkpt>
      <trkpt lat="42.99465" lon="-0.21132">
        <ele>1430.52</ele>
        <time>2018-08-19T09:50:16Z</time>
      </trkpt>
      <trkpt lat="42.99446" lon="-0.21132">
        <ele>1433.22</ele>
        <time>2018-08-19T09:50:26Z</time>
      </trkpt>
      <trkpt lat="42.99426" lon="-0.21135">
        <ele>1433.61</ele>
        <time>2018-08-19T09:51:34Z</time>
      </trkpt>
      <trkpt lat="42.99402" lon="-0.21136">
        <ele>1431.91</ele>
        <time>2018-08-19T09:51:39Z</time>
      </trkpt>
      <trkpt lat="42.99382" lon="-0.21137">
        <ele>1430.62</ele>
        <time>2018-08-19T09:51:42Z</time>
      </trkpt>
      <trkpt lat="42.99361" lon="-0.21135">
        <ele>1429.82</ele>
        <time>2018-08-19T09:51:45Z</time>
      </trkpt>
      <trkpt lat="42.99338" lon="-0.21134">
        <ele>1427.92</ele>
        <time>2018-08-19T09:51:48Z</time>
      </trkpt>
      <trkpt lat="42.99315" lon="-0.21128">
        <ele>1426.83</ele>
        <time>2018-08-19T09:51:51Z</time>
      </trkpt>
      <trkpt lat="42.99294" lon="-0.21127">
        <ele>1425.56</ele>
        <time>2018-08-19T09:51:54Z</time>
      </trkpt>
      <trkpt lat="42.99272" lon="-0.2113">
        <ele>1424.55</ele>
        <time>2018-08-19T09:51:57Z</time>
      </trkpt>
      <trkpt lat="42.99251" lon="-0.2113">
        <ele>1423.55</ele>
        <time>2018-08-19T09:52:00Z</time>
      </trkpt>
      <trkpt lat="42.99232" lon="-0.21135">
        <ele>1423.52</ele>
        <time>2018-08-19T09:52:05Z</time>
      </trkpt>
      <trkpt lat="42.99219" lon="-0.21153">
        <ele>1424.22</ele>
        <time>2018-08-19T09:52:10Z</time>
      </trkpt>
      <trkpt lat="42.99209" lon="-0.21176">
        <ele>1425.49</ele>
        <time>2018-08-19T09:52:16Z</time>
      </trkpt>
      <trkpt lat="42.99197" lon="-0.21194">
        <ele>1426.52</ele>
        <time>2018-08-19T09:52:23Z</time>
      </trkpt>
      <trkpt lat="42.99181" lon="-0.2121">
        <ele>1427.49</ele>
        <time>2018-08-19T09:52:32Z</time>
      </trkpt>
      <trkpt lat="42.99168" lon="-0.2123">
        <ele>1427.52</ele>
        <time>2018-08-19T09:52:41Z</time>
      </trkpt>
      <trkpt lat="42.99156" lon="-0.21252">
        <ele>1430.22</ele>
        <time>2018-08-19T09:52:50Z</time>
      </trkpt>
      <trkpt lat="42.99143" lon="-0.21271">
        <ele>1431.22</ele>
        <time>2018-08-19T09:52:59Z</time>
      </trkpt>
      <trkpt lat="42.99133" lon="-0.21293">
        <ele>1431.52</ele>
        <time>2018-08-19T09:53:08Z</time>
      </trkpt>
      <trkpt lat="42.99126" lon="-0.21316">
        <ele>1430.52</ele>
        <time>2018-08-19T09:53:14Z</time>
      </trkpt>
      <trkpt lat="42.99122" lon="-0.21341">
        <ele>1428.83</ele>
        <time>2018-08-19T09:53:18Z</time>
      </trkpt>
      <trkpt lat="42.99117" lon="-0.21371">
        <ele>1428.52</ele>
        <time>2018-08-19T09:53:22Z</time>
      </trkpt>
      <trkpt lat="42.99113" lon="-0.21395">
        <ele>1427.61</ele>
        <time>2018-08-19T09:53:25Z</time>
      </trkpt>
      <trkpt lat="42.99108" lon="-0.21424">
        <ele>1425.64</ele>
        <time>2018-08-19T09:53:28Z</time>
      </trkpt>
      <trkpt lat="42.99101" lon="-0.21453">
        <ele>1424.55</ele>
        <time>2018-08-19T09:53:31Z</time>
      </trkpt>
      <trkpt lat="42.99093" lon="-0.21476">
        <ele>1423.55</ele>
        <time>2018-08-19T09:53:34Z</time>
      </trkpt>
      <trkpt lat="42.99089" lon="-0.21505">
        <ele>1422.55</ele>
        <time>2018-08-19T09:53:39Z</time>
      </trkpt>
      <trkpt lat="42.99085" lon="-0.21534">
        <ele>1421.53</ele>
        <time>2018-08-19T09:53:43Z</time>
      </trkpt>
      <trkpt lat="42.99084" lon="-0.21566">
        <ele>1420.53</ele>
        <time>2018-08-19T09:53:47Z</time>
      </trkpt>
      <trkpt lat="42.99084" lon="-0.21593">
        <ele>1419.55</ele>
        <time>2018-08-19T09:53:50Z</time>
      </trkpt>
      <trkpt lat="42.99084" lon="-0.2162">
        <ele>1417.64</ele>
        <time>2018-08-19T09:53:53Z</time>
      </trkpt>
      <trkpt lat="42.99085" lon="-0.21649">
        <ele>1416.55</ele>
        <time>2018-08-19T09:53:56Z</time>
      </trkpt>
      <trkpt lat="42.99085" lon="-0.21678">
        <ele>1414.64</ele>
        <time>2018-08-19T09:53:59Z</time>
      </trkpt>
      <trkpt lat="42.99098" lon="-0.21657">
        <ele>1407.94</ele>
        <time>2018-08-19T09:54:12Z</time>
      </trkpt>
      <trkpt lat="42.99101" lon="-0.21628">
        <ele>1405.62</ele>
        <time>2018-08-19T09:54:16Z</time>
      </trkpt>
      <trkpt lat="42.99106" lon="-0.21602">
        <ele>1403.55</ele>
        <time>2018-08-19T09:54:21Z</time>
      </trkpt>
      <trkpt lat="42.99112" lon="-0.21625">
        <ele>1400.91</ele>
        <time>2018-08-19T09:54:27Z</time>
      </trkpt>
      <trkpt lat="42.99112" lon="-0.21651">
        <ele>1399.56</ele>
        <time>2018-08-19T09:54:30Z</time>
      </trkpt>
      <trkpt lat="42.99111" lon="-0.2168">
        <ele>1399.52</ele>
        <time>2018-08-19T09:54:33Z</time>
      </trkpt>
      <trkpt lat="42.99109" lon="-0.21707">
        <ele>1398.82</ele>
        <time>2018-08-19T09:54:36Z</time>
      </trkpt>
      <trkpt lat="42.99107" lon="-0.21732">
        <ele>1398.53</ele>
        <time>2018-08-19T09:54:39Z</time>
      </trkpt>
      <trkpt lat="42.99104" lon="-0.21762">
        <ele>1396.62</ele>
        <time>2018-08-19T09:54:43Z</time>
      </trkpt>
      <trkpt lat="42.99125" lon="-0.21759">
        <ele>1396.52</ele>
        <time>2018-08-19T09:54:48Z</time>
      </trkpt>
      <trkpt lat="42.99142" lon="-0.21742">
        <ele>1397.52</ele>
        <time>2018-08-19T09:54:54Z</time>
      </trkpt>
      <trkpt lat="42.9916" lon="-0.21734">
        <ele>1398.52</ele>
        <time>2018-08-19T09:55:00Z</time>
      </trkpt>
      <trkpt lat="42.99179" lon="-0.21731">
        <ele>1400.43</ele>
        <time>2018-08-19T09:55:08Z</time>
      </trkpt>
      <trkpt lat="42.99198" lon="-0.21737">
        <ele>1401.49</ele>
        <time>2018-08-19T09:55:20Z</time>
      </trkpt>
      <trkpt lat="42.99214" lon="-0.21753">
        <ele>1402.51</ele>
        <time>2018-08-19T09:55:31Z</time>
      </trkpt>
      <trkpt lat="42.99231" lon="-0.21766">
        <ele>1403.49</ele>
        <time>2018-08-19T09:55:38Z</time>
      </trkpt>
      <trkpt lat="42.99251" lon="-0.21767">
        <ele>1404.52</ele>
        <time>2018-08-19T09:55:48Z</time>
      </trkpt>
      <trkpt lat="42.99269" lon="-0.21768">
        <ele>1405.52</ele>
        <time>2018-08-19T09:55:58Z</time>
      </trkpt>
      <trkpt lat="42.99287" lon="-0.2177">
        <ele>1406.52</ele>
        <time>2018-08-19T09:56:09Z</time>
      </trkpt>
      <trkpt lat="42.99305" lon="-0.21778">
        <ele>1409.22</ele>
        <time>2018-08-19T09:56:19Z</time>
      </trkpt>
      <trkpt lat="42.9932" lon="-0.21791">
        <ele>1410.49</ele>
        <time>2018-08-19T09:56:29Z</time>
      </trkpt>
      <trkpt lat="42.99337" lon="-0.21804">
        <ele>1412.52</ele>
        <time>2018-08-19T09:56:40Z</time>
      </trkpt>
      <trkpt lat="42.9935" lon="-0.21822">
        <ele>1414.22</ele>
        <time>2018-08-19T09:56:51Z</time>
      </trkpt>
      <trkpt lat="42.99346" lon="-0.21847">
        <ele>1417.13</ele>
        <time>2018-08-19T09:57:03Z</time>
      </trkpt>
      <trkpt lat="42.99337" lon="-0.2187">
        <ele>1417.52</ele>
        <time>2018-08-19T09:57:15Z</time>
      </trkpt>
      <trkpt lat="42.99332" lon="-0.21893">
        <ele>1417.58</ele>
        <time>2018-08-19T09:57:26Z</time>
      </trkpt>
      <trkpt lat="42.99326" lon="-0.21918">
        <ele>1420.43</ele>
        <time>2018-08-19T09:57:38Z</time>
      </trkpt>
      <trkpt lat="42.9932" lon="-0.21943">
        <ele>1423.22</ele>
        <time>2018-08-19T09:57:50Z</time>
      </trkpt>
      <trkpt lat="42.99314" lon="-0.21968">
        <ele>1424.52</ele>
        <time>2018-08-19T09:58:02Z</time>
      </trkpt>
      <trkpt lat="42.99305" lon="-0.21991">
        <ele>1427.45</ele>
        <time>2018-08-19T09:58:14Z</time>
      </trkpt>
      <trkpt lat="42.99297" lon="-0.22013">
        <ele>1428.52</ele>
        <time>2018-08-19T09:58:26Z</time>
      </trkpt>
      <trkpt lat="42.99287" lon="-0.22034">
        <ele>1428.53</ele>
        <time>2018-08-19T09:58:39Z</time>
      </trkpt>
      <trkpt lat="42.99287" lon="-0.22008">
        <ele>1430.53</ele>
        <time>2018-08-19T09:58:54Z</time>
      </trkpt>
      <trkpt lat="42.99286" lon="-0.21981">
        <ele>1431.22</ele>
        <time>2018-08-19T09:59:05Z</time>
      </trkpt>
      <trkpt lat="42.99287" lon="-0.21956">
        <ele>1432.22</ele>
        <time>2018-08-19T09:59:15Z</time>
      </trkpt>
      <trkpt lat="42.99286" lon="-0.2193">
        <ele>1433.46</ele>
        <time>2018-08-19T09:59:26Z</time>
      </trkpt>
      <trkpt lat="42.99282" lon="-0.21905">
        <ele>1433.73</ele>
        <time>2018-08-19T09:59:37Z</time>
      </trkpt>
      <trkpt lat="42.99269" lon="-0.21922">
        <ele>1436.5</ele>
        <time>2018-08-19T09:59:53Z</time>
      </trkpt>
      <trkpt lat="42.9926" lon="-0.21945">
        <ele>1439.51</ele>
        <time>2018-08-19T10:00:04Z</time>
      </trkpt>
      <trkpt lat="42.99252" lon="-0.21968">
        <ele>1442.19</ele>
        <time>2018-08-19T10:00:15Z</time>
      </trkpt>
      <trkpt lat="42.99243" lon="-0.2199">
        <ele>1445.49</ele>
        <time>2018-08-19T10:00:26Z</time>
      </trkpt>
      <trkpt lat="42.99231" lon="-0.22011">
        <ele>1448.24</ele>
        <time>2018-08-19T10:00:39Z</time>
      </trkpt>
      <trkpt lat="42.9922" lon="-0.22031">
        <ele>1448.52</ele>
        <time>2018-08-19T10:00:50Z</time>
      </trkpt>
      <trkpt lat="42.9921" lon="-0.22053">
        <ele>1448.58</ele>
        <time>2018-08-19T10:01:02Z</time>
      </trkpt>
      <trkpt lat="42.99209" lon="-0.22081">
        <ele>1448.7</ele>
        <time>2018-08-19T10:01:24Z</time>
      </trkpt>
      <trkpt lat="42.99213" lon="-0.22107">
        <ele>1450.51</ele>
        <time>2018-08-19T10:01:35Z</time>
      </trkpt>
      <trkpt lat="42.99217" lon="-0.22131">
        <ele>1453.19</ele>
        <time>2018-08-19T10:01:47Z</time>
      </trkpt>
      <trkpt lat="42.99218" lon="-0.22158">
        <ele>1455.51</ele>
        <time>2018-08-19T10:01:59Z</time>
      </trkpt>
      <trkpt lat="42.99207" lon="-0.22138">
        <ele>1455.22</ele>
        <time>2018-08-19T10:02:17Z</time>
      </trkpt>
      <trkpt lat="42.99197" lon="-0.22116">
        <ele>1455.5</ele>
        <time>2018-08-19T10:02:28Z</time>
      </trkpt>
      <trkpt lat="42.99185" lon="-0.22097">
        <ele>1456.52</ele>
        <time>2018-08-19T10:02:38Z</time>
      </trkpt>
      <trkpt lat="42.9917" lon="-0.22079">
        <ele>1457.49</ele>
        <time>2018-08-19T10:02:48Z</time>
      </trkpt>
      <trkpt lat="42.99157" lon="-0.22061">
        <ele>1457.52</ele>
        <time>2018-08-19T10:02:56Z</time>
      </trkpt>
      <trkpt lat="42.99141" lon="-0.22046">
        <ele>1456.73</ele>
        <time>2018-08-19T10:03:06Z</time>
      </trkpt>
      <trkpt lat="42.99124" lon="-0.22035">
        <ele>1460.42</ele>
        <time>2018-08-19T10:03:17Z</time>
      </trkpt>
      <trkpt lat="42.99103" lon="-0.22033">
        <ele>1459.52</ele>
        <time>2018-08-19T10:03:23Z</time>
      </trkpt>
      <trkpt lat="42.99085" lon="-0.22038">
        <ele>1459.52</ele>
        <time>2018-08-19T10:03:34Z</time>
      </trkpt>
      <trkpt lat="42.99094" lon="-0.2206">
        <ele>1461.49</ele>
        <time>2018-08-19T10:03:46Z</time>
      </trkpt>
      <trkpt lat="42.99103" lon="-0.22083">
        <ele>1464.22</ele>
        <time>2018-08-19T10:03:59Z</time>
      </trkpt>
      <trkpt lat="42.99107" lon="-0.22107">
        <ele>1466.51</ele>
        <time>2018-08-19T10:04:12Z</time>
      </trkpt>
      <trkpt lat="42.99112" lon="-0.22131">
        <ele>1468.52</ele>
        <time>2018-08-19T10:04:24Z</time>
      </trkpt>
      <trkpt lat="42.99123" lon="-0.22152">
        <ele>1472.51</ele>
        <time>2018-08-19T10:04:37Z</time>
      </trkpt>
      <trkpt lat="42.99133" lon="-0.22175">
        <ele>1476.52</ele>
        <time>2018-08-19T10:04:50Z</time>
      </trkpt>
      <trkpt lat="42.99139" lon="-0.22199">
        <ele>1480.52</ele>
        <time>2018-08-19T10:05:03Z</time>
      </trkpt>
      <trkpt lat="42.99142" lon="-0.22224">
        <ele>1483.29</ele>
        <time>2018-08-19T10:05:16Z</time>
      </trkpt>
      <trkpt lat="42.99123" lon="-0.22224">
        <ele>1482.52</ele>
        <time>2018-08-19T10:05:36Z</time>
      </trkpt>
      <trkpt lat="42.99106" lon="-0.22213">
        <ele>1483.51</ele>
        <time>2018-08-19T10:05:49Z</time>
      </trkpt>
      <trkpt lat="42.99092" lon="-0.22197">
        <ele>1485.79</ele>
        <time>2018-08-19T10:06:01Z</time>
      </trkpt>
      <trkpt lat="42.99096" lon="-0.22222">
        <ele>1489.21</ele>
        <time>2018-08-19T10:06:16Z</time>
      </trkpt>
      <trkpt lat="42.99102" lon="-0.22245">
        <ele>1491.52</ele>
        <time>2018-08-19T10:06:28Z</time>
      </trkpt>
      <trkpt lat="42.99108" lon="-0.2227">
        <ele>1495.43</ele>
        <time>2018-08-19T10:06:41Z</time>
      </trkpt>
      <trkpt lat="42.99117" lon="-0.22293">
        <ele>1497.49</ele>
        <time>2018-08-19T10:06:55Z</time>
      </trkpt>
      <trkpt lat="42.99121" lon="-0.22318">
        <ele>1499.52</ele>
        <time>2018-08-19T10:07:08Z</time>
      </trkpt>
      <trkpt lat="42.99122" lon="-0.22343">
        <ele>1502.22</ele>
        <time>2018-08-19T10:07:20Z</time>
      </trkpt>
      <trkpt lat="42.99124" lon="-0.22368">
        <ele>1504.44</ele>
        <time>2018-08-19T10:07:32Z</time>
      </trkpt>
      <trkpt lat="42.99127" lon="-0.22393">
        <ele>1507.51</ele>
        <time>2018-08-19T10:07:46Z</time>
      </trkpt>
      <trkpt lat="42.99129" lon="-0.22418">
        <ele>1510.43</ele>
        <time>2018-08-19T10:07:58Z</time>
      </trkpt>
      <trkpt lat="42.9913" lon="-0.22444">
        <ele>1512.43</ele>
        <time>2018-08-19T10:08:11Z</time>
      </trkpt>
      <trkpt lat="42.99136" lon="-0.22469">
        <ele>1514.58</ele>
        <time>2018-08-19T10:08:23Z</time>
      </trkpt>
      <trkpt lat="42.99137" lon="-0.22493">
        <ele>1517.22</ele>
        <time>2018-08-19T10:08:34Z</time>
      </trkpt>
      <trkpt lat="42.99143" lon="-0.22518">
        <ele>1521.19</ele>
        <time>2018-08-19T10:08:47Z</time>
      </trkpt>
      <trkpt lat="42.9915" lon="-0.22541">
        <ele>1524.22</ele>
        <time>2018-08-19T10:08:59Z</time>
      </trkpt>
      <trkpt lat="42.99161" lon="-0.22563">
        <ele>1525.43</ele>
        <time>2018-08-19T10:09:12Z</time>
      </trkpt>
      <trkpt lat="42.99168" lon="-0.22585">
        <ele>1528.43</ele>
        <time>2018-08-19T10:09:21Z</time>
      </trkpt>
      <trkpt lat="42.99161" lon="-0.22608">
        <ele>1530.51</ele>
        <time>2018-08-19T10:09:41Z</time>
      </trkpt>
      <trkpt lat="42.9915" lon="-0.22629">
        <ele>1530.73</ele>
        <time>2018-08-19T10:09:49Z</time>
      </trkpt>
      <trkpt lat="42.99133" lon="-0.22643">
        <ele>1534.82</ele>
        <time>2018-08-19T10:18:57Z</time>
      </trkpt>
      <trkpt lat="42.99118" lon="-0.22662">
        <ele>1530.95</ele>
        <time>2018-08-19T10:19:02Z</time>
      </trkpt>
      <trkpt lat="42.991" lon="-0.22679">
        <ele>1530.53</ele>
        <time>2018-08-19T10:19:06Z</time>
      </trkpt>
      <trkpt lat="42.99082" lon="-0.22696">
        <ele>1529.82</ele>
        <time>2018-08-19T10:19:10Z</time>
      </trkpt>
      <trkpt lat="42.99064" lon="-0.22711">
        <ele>1530.22</ele>
        <time>2018-08-19T10:19:14Z</time>
      </trkpt>
      <trkpt lat="42.99045" lon="-0.22716">
        <ele>1529.55</ele>
        <time>2018-08-19T10:19:18Z</time>
      </trkpt>
      <trkpt lat="42.99023" lon="-0.22711">
        <ele>1530.52</ele>
        <time>2018-08-19T10:19:23Z</time>
      </trkpt>
      <trkpt lat="42.99005" lon="-0.22701">
        <ele>1530.52</ele>
        <time>2018-08-19T10:19:28Z</time>
      </trkpt>
      <trkpt lat="42.98986" lon="-0.22686">
        <ele>1531.22</ele>
        <time>2018-08-19T10:19:34Z</time>
      </trkpt>
      <trkpt lat="42.98968" lon="-0.22677">
        <ele>1532.43</ele>
        <time>2018-08-19T10:19:40Z</time>
      </trkpt>
      <trkpt lat="42.98949" lon="-0.22672">
        <ele>1533.51</ele>
        <time>2018-08-19T10:19:48Z</time>
      </trkpt>
      <trkpt lat="42.98931" lon="-0.22674">
        <ele>1534.22</ele>
        <time>2018-08-19T10:19:55Z</time>
      </trkpt>
      <trkpt lat="42.98912" lon="-0.22682">
        <ele>1534.52</ele>
        <time>2018-08-19T10:20:01Z</time>
      </trkpt>
      <trkpt lat="42.98894" lon="-0.22688">
        <ele>1535.43</ele>
        <time>2018-08-19T10:20:08Z</time>
      </trkpt>
      <trkpt lat="42.98876" lon="-0.22694">
        <ele>1536.22</ele>
        <time>2018-08-19T10:20:15Z</time>
      </trkpt>
      <trkpt lat="42.98858" lon="-0.22701">
        <ele>1536.5</ele>
        <time>2018-08-19T10:20:22Z</time>
      </trkpt>
      <trkpt lat="42.98839" lon="-0.22706">
        <ele>1536.52</ele>
        <time>2018-08-19T10:20:30Z</time>
      </trkpt>
      <trkpt lat="42.98822" lon="-0.22717">
        <ele>1537.43</ele>
        <time>2018-08-19T10:20:37Z</time>
      </trkpt>
      <trkpt lat="42.98804" lon="-0.22725">
        <ele>1538.43</ele>
        <time>2018-08-19T10:20:44Z</time>
      </trkpt>
      <trkpt lat="42.98787" lon="-0.22737">
        <ele>1539.49</ele>
        <time>2018-08-19T10:20:51Z</time>
      </trkpt>
      <trkpt lat="42.98768" lon="-0.22745">
        <ele>1540.43</ele>
        <time>2018-08-19T10:20:58Z</time>
      </trkpt>
      <trkpt lat="42.98749" lon="-0.22752">
        <ele>1539.61</ele>
        <time>2018-08-19T10:21:05Z</time>
      </trkpt>
      <trkpt lat="42.9873" lon="-0.22758">
        <ele>1539.52</ele>
        <time>2018-08-19T10:21:11Z</time>
      </trkpt>
      <trkpt lat="42.98712" lon="-0.22772">
        <ele>1539.52</ele>
        <time>2018-08-19T10:21:17Z</time>
      </trkpt>
      <trkpt lat="42.987" lon="-0.22795">
        <ele>1538.61</ele>
        <time>2018-08-19T10:21:23Z</time>
      </trkpt>
      <trkpt lat="42.98686" lon="-0.22816">
        <ele>1537.82</ele>
        <time>2018-08-19T10:21:29Z</time>
      </trkpt>
      <trkpt lat="42.98666" lon="-0.22824">
        <ele>1537.52</ele>
        <time>2018-08-19T10:21:35Z</time>
      </trkpt>
      <trkpt lat="42.98644" lon="-0.22824">
        <ele>1536.82</ele>
        <time>2018-08-19T10:21:40Z</time>
      </trkpt>
      <trkpt lat="42.98622" lon="-0.22825">
        <ele>1536.52</ele>
        <time>2018-08-19T10:21:45Z</time>
      </trkpt>
      <trkpt lat="42.98601" lon="-0.22831">
        <ele>1535.61</ele>
        <time>2018-08-19T10:21:49Z</time>
      </trkpt>
      <trkpt lat="42.98581" lon="-0.22839">
        <ele>1535.52</ele>
        <time>2018-08-19T10:21:53Z</time>
      </trkpt>
      <trkpt lat="42.98562" lon="-0.2285">
        <ele>1534.53</ele>
        <time>2018-08-19T10:21:57Z</time>
      </trkpt>
      <trkpt lat="42.98544" lon="-0.22863">
        <ele>1534.31</ele>
        <time>2018-08-19T10:22:01Z</time>
      </trkpt>
      <trkpt lat="42.98531" lon="-0.2288">
        <ele>1533.55</ele>
        <time>2018-08-19T10:22:05Z</time>
      </trkpt>
      <trkpt lat="42.98523" lon="-0.22905">
        <ele>1532.61</ele>
        <time>2018-08-19T10:22:09Z</time>
      </trkpt>
      <trkpt lat="42.98518" lon="-0.22929">
        <ele>1531.82</ele>
        <time>2018-08-19T10:22:12Z</time>
      </trkpt>
      <trkpt lat="42.98522" lon="-0.22958">
        <ele>1531.8</ele>
        <time>2018-08-19T10:22:15Z</time>
      </trkpt>
      <trkpt lat="42.9853" lon="-0.22988">
        <ele>1530.56</ele>
        <time>2018-08-19T10:22:18Z</time>
      </trkpt>
      <trkpt lat="42.98546" lon="-0.23016">
        <ele>1530.52</ele>
        <time>2018-08-19T10:22:21Z</time>
      </trkpt>
      <trkpt lat="42.98562" lon="-0.23043">
        <ele>1530.52</ele>
        <time>2018-08-19T10:22:24Z</time>
      </trkpt>
      <trkpt lat="42.98568" lon="-0.23067">
        <ele>1532.83</ele>
        <time>2018-08-19T10:22:26Z</time>
      </trkpt>
      <trkpt lat="42.98575" lon="-0.23102">
        <ele>1533.5</ele>
        <time>2018-08-19T10:22:29Z</time>
      </trkpt>
      <trkpt lat="42.98577" lon="-0.23127">
        <ele>1533.52</ele>
        <time>2018-08-19T10:22:31Z</time>
      </trkpt>
      <trkpt lat="42.98578" lon="-0.23151">
        <ele>1532.82</ele>
        <time>2018-08-19T10:22:33Z</time>
      </trkpt>
      <trkpt lat="42.98578" lon="-0.23178">
        <ele>1531.64</ele>
        <time>2018-08-19T10:22:35Z</time>
      </trkpt>
      <trkpt lat="42.98576" lon="-0.23205">
        <ele>1530.62</ele>
        <time>2018-08-19T10:22:37Z</time>
      </trkpt>
      <trkpt lat="42.98573" lon="-0.23233">
        <ele>1529.83</ele>
        <time>2018-08-19T10:22:39Z</time>
      </trkpt>
      <trkpt lat="42.98569" lon="-0.23267">
        <ele>1527.92</ele>
        <time>2018-08-19T10:22:42Z</time>
      </trkpt>
      <trkpt lat="42.98562" lon="-0.23296">
        <ele>1527.32</ele>
        <time>2018-08-19T10:22:45Z</time>
      </trkpt>
      <trkpt lat="42.98567" lon="-0.23327">
        <ele>1526.53</ele>
        <time>2018-08-19T10:22:49Z</time>
      </trkpt>
      <trkpt lat="42.98578" lon="-0.23347">
        <ele>1525.61</ele>
        <time>2018-08-19T10:22:52Z</time>
      </trkpt>
      <trkpt lat="42.98584" lon="-0.23377">
        <ele>1527.13</ele>
        <time>2018-08-19T10:22:56Z</time>
      </trkpt>
      <trkpt lat="42.98583" lon="-0.23402">
        <ele>1522.64</ele>
        <time>2018-08-19T10:23:06Z</time>
      </trkpt>
      <trkpt lat="42.98582" lon="-0.23429">
        <ele>1518.85</ele>
        <time>2018-08-19T10:23:16Z</time>
      </trkpt>
      <trkpt lat="42.98577" lon="-0.23455">
        <ele>1515.16</ele>
        <time>2018-08-19T10:23:21Z</time>
      </trkpt>
      <trkpt lat="42.98569" lon="-0.2348">
        <ele>1513.63</ele>
        <time>2018-08-19T10:23:24Z</time>
      </trkpt>
      <trkpt lat="42.9856" lon="-0.23505">
        <ele>1511</ele>
        <time>2018-08-19T10:23:27Z</time>
      </trkpt>
      <trkpt lat="42.98547" lon="-0.23533">
        <ele>1509.63</ele>
        <time>2018-08-19T10:23:30Z</time>
      </trkpt>
      <trkpt lat="42.98549" lon="-0.23566">
        <ele>1508.55</ele>
        <time>2018-08-19T10:23:33Z</time>
      </trkpt>
      <trkpt lat="42.98547" lon="-0.236">
        <ele>1508.52</ele>
        <time>2018-08-19T10:23:36Z</time>
      </trkpt>
      <trkpt lat="42.98551" lon="-0.23632">
        <ele>1507.61</ele>
        <time>2018-08-19T10:23:39Z</time>
      </trkpt>
      <trkpt lat="42.98555" lon="-0.23663">
        <ele>1506.55</ele>
        <time>2018-08-19T10:23:42Z</time>
      </trkpt>
      <trkpt lat="42.98554" lon="-0.23697">
        <ele>1505.61</ele>
        <time>2018-08-19T10:23:45Z</time>
      </trkpt>
      <trkpt lat="42.98558" lon="-0.23721">
        <ele>1504.62</ele>
        <time>2018-08-19T10:23:47Z</time>
      </trkpt>
      <trkpt lat="42.98563" lon="-0.23746">
        <ele>1503.62</ele>
        <time>2018-08-19T10:23:49Z</time>
      </trkpt>
      <trkpt lat="42.98573" lon="-0.23778">
        <ele>1504.5</ele>
        <time>2018-08-19T10:23:52Z</time>
      </trkpt>
      <trkpt lat="42.98577" lon="-0.23802">
        <ele>1503.61</ele>
        <time>2018-08-19T10:23:54Z</time>
      </trkpt>
      <trkpt lat="42.98583" lon="-0.23825">
        <ele>1503.53</ele>
        <time>2018-08-19T10:23:56Z</time>
      </trkpt>
      <trkpt lat="42.98597" lon="-0.23854">
        <ele>1503.52</ele>
        <time>2018-08-19T10:23:59Z</time>
      </trkpt>
      <trkpt lat="42.98615" lon="-0.23875">
        <ele>1502.82</ele>
        <time>2018-08-19T10:24:02Z</time>
      </trkpt>
      <trkpt lat="42.98635" lon="-0.23891">
        <ele>1501.83</ele>
        <time>2018-08-19T10:24:05Z</time>
      </trkpt>
      <trkpt lat="42.98653" lon="-0.23912">
        <ele>1501.53</ele>
        <time>2018-08-19T10:24:08Z</time>
      </trkpt>
      <trkpt lat="42.9866" lon="-0.23939">
        <ele>1500.61</ele>
        <time>2018-08-19T10:24:11Z</time>
      </trkpt>
      <trkpt lat="42.98662" lon="-0.23971">
        <ele>1501.5</ele>
        <time>2018-08-19T10:24:14Z</time>
      </trkpt>
      <trkpt lat="42.9866" lon="-0.24">
        <ele>1500.61</ele>
        <time>2018-08-19T10:24:17Z</time>
      </trkpt>
      <trkpt lat="42.98654" lon="-0.24032">
        <ele>1497.94</ele>
        <time>2018-08-19T10:24:20Z</time>
      </trkpt>
      <trkpt lat="42.98648" lon="-0.24064">
        <ele>1494.95</ele>
        <time>2018-08-19T10:24:23Z</time>
      </trkpt>
      <trkpt lat="42.9864" lon="-0.24096">
        <ele>1491.89</ele>
        <time>2018-08-19T10:24:26Z</time>
      </trkpt>
      <trkpt lat="42.98635" lon="-0.24128">
        <ele>1490.56</ele>
        <time>2018-08-19T10:24:29Z</time>
      </trkpt>
      <trkpt lat="42.98635" lon="-0.24161">
        <ele>1488.64</ele>
        <time>2018-08-19T10:24:32Z</time>
      </trkpt>
      <trkpt lat="42.98631" lon="-0.24194">
        <ele>1486.92</ele>
        <time>2018-08-19T10:24:35Z</time>
      </trkpt>
      <trkpt lat="42.98629" lon="-0.24226">
        <ele>1485.62</ele>
        <time>2018-08-19T10:24:38Z</time>
      </trkpt>
      <trkpt lat="42.98632" lon="-0.24256">
        <ele>1482.94</ele>
        <time>2018-08-19T10:24:41Z</time>
      </trkpt>
      <trkpt lat="42.98633" lon="-0.24288">
        <ele>1480.92</ele>
        <time>2018-08-19T10:24:44Z</time>
      </trkpt>
      <trkpt lat="42.98631" lon="-0.24321">
        <ele>1478.01</ele>
        <time>2018-08-19T10:24:47Z</time>
      </trkpt>
      <trkpt lat="42.9863" lon="-0.24346">
        <ele>1475.96</ele>
        <time>2018-08-19T10:24:49Z</time>
      </trkpt>
      <trkpt lat="42.9863" lon="-0.24371">
        <ele>1474.65</ele>
        <time>2018-08-19T10:24:51Z</time>
      </trkpt>
      <trkpt lat="42.98631" lon="-0.24395">
        <ele>1472.92</ele>
        <time>2018-08-19T10:24:53Z</time>
      </trkpt>
      <trkpt lat="42.98633" lon="-0.2443">
        <ele>1471.62</ele>
        <time>2018-08-19T10:24:56Z</time>
      </trkpt>
      <trkpt lat="42.98632" lon="-0.24458">
        <ele>1470.82</ele>
        <time>2018-08-19T10:24:59Z</time>
      </trkpt>
      <trkpt lat="42.98628" lon="-0.24486">
        <ele>1467.65</ele>
        <time>2018-08-19T10:25:03Z</time>
      </trkpt>
      <trkpt lat="42.98629" lon="-0.24511">
        <ele>1463.94</ele>
        <time>2018-08-19T10:25:08Z</time>
      </trkpt>
      <trkpt lat="42.98634" lon="-0.24539">
        <ele>1461.83</ele>
        <time>2018-08-19T10:25:14Z</time>
      </trkpt>
      <trkpt lat="42.98631" lon="-0.24565">
        <ele>1462.52</ele>
        <time>2018-08-19T10:25:21Z</time>
      </trkpt>
      <trkpt lat="42.98622" lon="-0.24588">
        <ele>1463.51</ele>
        <time>2018-08-19T10:25:29Z</time>
      </trkpt>
      <trkpt lat="42.98605" lon="-0.246">
        <ele>1464.22</ele>
        <time>2018-08-19T10:25:38Z</time>
      </trkpt>
      <trkpt lat="42.98586" lon="-0.24603">
        <ele>1464.52</ele>
        <time>2018-08-19T10:25:47Z</time>
      </trkpt>
      <trkpt lat="42.98567" lon="-0.24606">
        <ele>1465.43</ele>
        <time>2018-08-19T10:25:55Z</time>
      </trkpt>
      <trkpt lat="42.98548" lon="-0.24605">
        <ele>1465.52</ele>
        <time>2018-08-19T10:26:04Z</time>
      </trkpt>
      <trkpt lat="42.9853" lon="-0.24595">
        <ele>1465.52</ele>
        <time>2018-08-19T10:26:14Z</time>
      </trkpt>
      <trkpt lat="42.98514" lon="-0.24579">
        <ele>1467.52</ele>
        <time>2018-08-19T10:26:24Z</time>
      </trkpt>
      <trkpt lat="42.98503" lon="-0.24558">
        <ele>1471.21</ele>
        <time>2018-08-19T10:26:34Z</time>
      </trkpt>
      <trkpt lat="42.9849" lon="-0.24539">
        <ele>1473.45</ele>
        <time>2018-08-19T10:26:44Z</time>
      </trkpt>
      <trkpt lat="42.98475" lon="-0.24522">
        <ele>1474.22</ele>
        <time>2018-08-19T10:26:54Z</time>
      </trkpt>
      <trkpt lat="42.98459" lon="-0.24507">
        <ele>1475.46</ele>
        <time>2018-08-19T10:27:04Z</time>
      </trkpt>
      <trkpt lat="42.98444" lon="-0.24493">
        <ele>1476.51</ele>
        <time>2018-08-19T10:27:13Z</time>
      </trkpt>
      <trkpt lat="42.98428" lon="-0.24477">
        <ele>1476.8</ele>
        <time>2018-08-19T10:27:21Z</time>
      </trkpt>
      <trkpt lat="42.9841" lon="-0.24471">
        <ele>1477.5</ele>
        <time>2018-08-19T10:27:28Z</time>
      </trkpt>
      <trkpt lat="42.98394" lon="-0.24459">
        <ele>1477.51</ele>
        <time>2018-08-19T10:27:37Z</time>
      </trkpt>
      <trkpt lat="42.98376" lon="-0.24456">
        <ele>1479.51</ele>
        <time>2018-08-19T10:27:45Z</time>
      </trkpt>
      <trkpt lat="42.98357" lon="-0.24449">
        <ele>1480.52</ele>
        <time>2018-08-19T10:27:54Z</time>
      </trkpt>
      <trkpt lat="42.98337" lon="-0.2445">
        <ele>1479.52</ele>
        <time>2018-08-19T10:28:03Z</time>
      </trkpt>
      <trkpt lat="42.98317" lon="-0.24447">
        <ele>1479.54</ele>
        <time>2018-08-19T10:28:12Z</time>
      </trkpt>
      <trkpt lat="42.98303" lon="-0.24427">
        <ele>1481.22</ele>
        <time>2018-08-19T10:28:19Z</time>
      </trkpt>
      <trkpt lat="42.98284" lon="-0.2442">
        <ele>1479.53</ele>
        <time>2018-08-19T10:28:25Z</time>
      </trkpt>
      <trkpt lat="42.98271" lon="-0.24437">
        <ele>1481.52</ele>
        <time>2018-08-19T10:28:32Z</time>
      </trkpt>
      <trkpt lat="42.98259" lon="-0.24457">
        <ele>1482.49</ele>
        <time>2018-08-19T10:28:40Z</time>
      </trkpt>
      <trkpt lat="42.98243" lon="-0.24473">
        <ele>1483.52</ele>
        <time>2018-08-19T10:28:48Z</time>
      </trkpt>
      <trkpt lat="42.98224" lon="-0.24473">
        <ele>1484.52</ele>
        <time>2018-08-19T10:28:56Z</time>
      </trkpt>
      <trkpt lat="42.98206" lon="-0.24476">
        <ele>1485.49</ele>
        <time>2018-08-19T10:29:04Z</time>
      </trkpt>
      <trkpt lat="42.98188" lon="-0.24485">
        <ele>1485.52</ele>
        <time>2018-08-19T10:29:12Z</time>
      </trkpt>
      <trkpt lat="42.98172" lon="-0.24496">
        <ele>1486.52</ele>
        <time>2018-08-19T10:29:20Z</time>
      </trkpt>
      <trkpt lat="42.98154" lon="-0.24504">
        <ele>1487.52</ele>
        <time>2018-08-19T10:29:28Z</time>
      </trkpt>
      <trkpt lat="42.98137" lon="-0.24516">
        <ele>1489.43</ele>
        <time>2018-08-19T10:29:37Z</time>
      </trkpt>
      <trkpt lat="42.98123" lon="-0.24533">
        <ele>1491.23</ele>
        <time>2018-08-19T10:29:46Z</time>
      </trkpt>
      <trkpt lat="42.98111" lon="-0.24551">
        <ele>1493.49</ele>
        <time>2018-08-19T10:29:55Z</time>
      </trkpt>
      <trkpt lat="42.981" lon="-0.24571">
        <ele>1495.51</ele>
        <time>2018-08-19T10:30:04Z</time>
      </trkpt>
      <trkpt lat="42.98086" lon="-0.2459">
        <ele>1497.41</ele>
        <time>2018-08-19T10:30:13Z</time>
      </trkpt>
      <trkpt lat="42.98074" lon="-0.2461">
        <ele>1498.52</ele>
        <time>2018-08-19T10:30:22Z</time>
      </trkpt>
      <trkpt lat="42.98067" lon="-0.24633">
        <ele>1498.52</ele>
        <time>2018-08-19T10:30:31Z</time>
      </trkpt>
      <trkpt lat="42.98065" lon="-0.24657">
        <ele>1500.5</ele>
        <time>2018-08-19T10:30:40Z</time>
      </trkpt>
      <trkpt lat="42.98063" lon="-0.24684">
        <ele>1503.49</ele>
        <time>2018-08-19T10:30:50Z</time>
      </trkpt>
      <trkpt lat="42.98052" lon="-0.24662">
        <ele>1507.52</ele>
        <time>2018-08-19T10:31:16Z</time>
      </trkpt>
      <trkpt lat="42.98049" lon="-0.24636">
        <ele>1508.52</ele>
        <time>2018-08-19T10:31:29Z</time>
      </trkpt>
      <trkpt lat="42.98047" lon="-0.2461">
        <ele>1511.49</ele>
        <time>2018-08-19T10:31:43Z</time>
      </trkpt>
      <trkpt lat="42.98052" lon="-0.24585">
        <ele>1512.52</ele>
        <time>2018-08-19T10:31:56Z</time>
      </trkpt>
      <trkpt lat="42.98061" lon="-0.24561">
        <ele>1514.51</ele>
        <time>2018-08-19T10:32:07Z</time>
      </trkpt>
      <trkpt lat="42.98069" lon="-0.24537">
        <ele>1516.23</ele>
        <time>2018-08-19T10:32:18Z</time>
      </trkpt>
      <trkpt lat="42.98062" lon="-0.24512">
        <ele>1517.49</ele>
        <time>2018-08-19T10:32:30Z</time>
      </trkpt>
      <trkpt lat="42.98059" lon="-0.24487">
        <ele>1517.22</ele>
        <time>2018-08-19T10:32:41Z</time>
      </trkpt>
      <trkpt lat="42.98071" lon="-0.24466">
        <ele>1516.8</ele>
        <time>2018-08-19T10:32:52Z</time>
      </trkpt>
      <trkpt lat="42.98088" lon="-0.24457">
        <ele>1518.51</ele>
        <time>2018-08-19T10:33:03Z</time>
      </trkpt>
      <trkpt lat="42.98105" lon="-0.24447">
        <ele>1518.52</ele>
        <time>2018-08-19T10:33:14Z</time>
      </trkpt>
      <trkpt lat="42.98123" lon="-0.24437">
        <ele>1520.52</ele>
        <time>2018-08-19T10:33:25Z</time>
      </trkpt>
      <trkpt lat="42.98139" lon="-0.24424">
        <ele>1521.52</ele>
        <time>2018-08-19T10:33:37Z</time>
      </trkpt>
      <trkpt lat="42.98144" lon="-0.244">
        <ele>1523.52</ele>
        <time>2018-08-19T10:33:48Z</time>
      </trkpt>
      <trkpt lat="42.98147" lon="-0.24375">
        <ele>1525.5</ele>
        <time>2018-08-19T10:33:58Z</time>
      </trkpt>
      <trkpt lat="42.9816" lon="-0.24356">
        <ele>1525.8</ele>
        <time>2018-08-19T10:34:08Z</time>
      </trkpt>
      <trkpt lat="42.98173" lon="-0.24337">
        <ele>1527.43</ele>
        <time>2018-08-19T10:34:18Z</time>
      </trkpt>
      <trkpt lat="42.98188" lon="-0.24324">
        <ele>1529.49</ele>
        <time>2018-08-19T10:34:29Z</time>
      </trkpt>
      <trkpt lat="42.98204" lon="-0.2431">
        <ele>1530.52</ele>
        <time>2018-08-19T10:34:39Z</time>
      </trkpt>
      <trkpt lat="42.98218" lon="-0.24292">
        <ele>1531.51</ele>
        <time>2018-08-19T10:34:49Z</time>
      </trkpt>
      <trkpt lat="42.98228" lon="-0.24271">
        <ele>1532.52</ele>
        <time>2018-08-19T10:34:59Z</time>
      </trkpt>
      <trkpt lat="42.98232" lon="-0.24246">
        <ele>1534.52</ele>
        <time>2018-08-19T10:35:09Z</time>
      </trkpt>
      <trkpt lat="42.98237" lon="-0.24221">
        <ele>1536.51</ele>
        <time>2018-08-19T10:35:19Z</time>
      </trkpt>
      <trkpt lat="42.98246" lon="-0.24198">
        <ele>1537.52</ele>
        <time>2018-08-19T10:35:30Z</time>
      </trkpt>
      <trkpt lat="42.98256" lon="-0.24174">
        <ele>1539.22</ele>
        <time>2018-08-19T10:35:41Z</time>
      </trkpt>
      <trkpt lat="42.98266" lon="-0.24151">
        <ele>1541.49</ele>
        <time>2018-08-19T10:35:53Z</time>
      </trkpt>
      <trkpt lat="42.98278" lon="-0.24132">
        <ele>1541.55</ele>
        <time>2018-08-19T10:36:02Z</time>
      </trkpt>
      <trkpt lat="42.98278" lon="-0.24107">
        <ele>1544.49</ele>
        <time>2018-08-19T10:36:13Z</time>
      </trkpt>
      <trkpt lat="42.98261" lon="-0.24115">
        <ele>1548.22</ele>
        <time>2018-08-19T10:37:52Z</time>
      </trkpt>
      <trkpt lat="42.98243" lon="-0.24129">
        <ele>1549.73</ele>
        <time>2018-08-19T10:38:02Z</time>
      </trkpt>
      <trkpt lat="42.98228" lon="-0.24146">
        <ele>1552.22</ele>
        <time>2018-08-19T10:38:12Z</time>
      </trkpt>
      <trkpt lat="42.9821" lon="-0.24156">
        <ele>1553.61</ele>
        <time>2018-08-19T10:38:22Z</time>
      </trkpt>
      <trkpt lat="42.98192" lon="-0.24164">
        <ele>1556.43</ele>
        <time>2018-08-19T10:38:31Z</time>
      </trkpt>
      <trkpt lat="42.98177" lon="-0.24178">
        <ele>1559.19</ele>
        <time>2018-08-19T10:38:40Z</time>
      </trkpt>
      <trkpt lat="42.98161" lon="-0.24192">
        <ele>1562.49</ele>
        <time>2018-08-19T10:38:51Z</time>
      </trkpt>
      <trkpt lat="42.98144" lon="-0.24203">
        <ele>1565.49</ele>
        <time>2018-08-19T10:39:02Z</time>
      </trkpt>
      <trkpt lat="42.98129" lon="-0.24217">
        <ele>1567.52</ele>
        <time>2018-08-19T10:39:14Z</time>
      </trkpt>
      <trkpt lat="42.98115" lon="-0.24233">
        <ele>1568.51</ele>
        <time>2018-08-19T10:39:24Z</time>
      </trkpt>
      <trkpt lat="42.98097" lon="-0.24245">
        <ele>1573.19</ele>
        <time>2018-08-19T10:39:35Z</time>
      </trkpt>
      <trkpt lat="42.98081" lon="-0.24256">
        <ele>1573.52</ele>
        <time>2018-08-19T10:39:46Z</time>
      </trkpt>
      <trkpt lat="42.98064" lon="-0.24267">
        <ele>1574.31</ele>
        <time>2018-08-19T10:39:56Z</time>
      </trkpt>
      <trkpt lat="42.98046" lon="-0.24273">
        <ele>1574.52</ele>
        <time>2018-08-19T10:40:06Z</time>
      </trkpt>
      <trkpt lat="42.98028" lon="-0.24279">
        <ele>1577.22</ele>
        <time>2018-08-19T10:40:16Z</time>
      </trkpt>
      <trkpt lat="42.9801" lon="-0.24288">
        <ele>1578.49</ele>
        <time>2018-08-19T10:40:27Z</time>
      </trkpt>
      <trkpt lat="42.97995" lon="-0.24305">
        <ele>1580.52</ele>
        <time>2018-08-19T10:40:40Z</time>
      </trkpt>
      <trkpt lat="42.97977" lon="-0.24305">
        <ele>1582.52</ele>
        <time>2018-08-19T10:40:50Z</time>
      </trkpt>
      <trkpt lat="42.97961" lon="-0.24316">
        <ele>1585.52</ele>
        <time>2018-08-19T10:41:00Z</time>
      </trkpt>
      <trkpt lat="42.97947" lon="-0.24335">
        <ele>1587.52</ele>
        <time>2018-08-19T10:41:11Z</time>
      </trkpt>
      <trkpt lat="42.97932" lon="-0.24353">
        <ele>1589.52</ele>
        <time>2018-08-19T10:41:23Z</time>
      </trkpt>
      <trkpt lat="42.97918" lon="-0.24371">
        <ele>1591.24</ele>
        <time>2018-08-19T10:41:35Z</time>
      </trkpt>
      <trkpt lat="42.97906" lon="-0.24391">
        <ele>1594.52</ele>
        <time>2018-08-19T10:41:46Z</time>
      </trkpt>
      <trkpt lat="42.9789" lon="-0.24407">
        <ele>1595.8</ele>
        <time>2018-08-19T10:41:57Z</time>
      </trkpt>
      <trkpt lat="42.97873" lon="-0.24416">
        <ele>1597.52</ele>
        <time>2018-08-19T10:42:08Z</time>
      </trkpt>
      <trkpt lat="42.97855" lon="-0.24422">
        <ele>1599.51</ele>
        <time>2018-08-19T10:42:19Z</time>
      </trkpt>
      <trkpt lat="42.97836" lon="-0.2443">
        <ele>1602.43</ele>
        <time>2018-08-19T10:42:31Z</time>
      </trkpt>
      <trkpt lat="42.97819" lon="-0.24439">
        <ele>1601.51</ele>
        <time>2018-08-19T10:45:00Z</time>
      </trkpt>
      <trkpt lat="42.97802" lon="-0.24452">
        <ele>1600.53</ele>
        <time>2018-08-19T10:45:08Z</time>
      </trkpt>
      <trkpt lat="42.97783" lon="-0.24463">
        <ele>1596.67</ele>
        <time>2018-08-19T10:45:14Z</time>
      </trkpt>
      <trkpt lat="42.97765" lon="-0.24465">
        <ele>1596.52</ele>
        <time>2018-08-19T10:45:20Z</time>
      </trkpt>
      <trkpt lat="42.97748" lon="-0.24477">
        <ele>1598.31</ele>
        <time>2018-08-19T11:30:53Z</time>
      </trkpt>
      <trkpt lat="42.9773" lon="-0.24471">
        <ele>1599.82</ele>
        <time>2018-08-19T11:34:30Z</time>
      </trkpt>
      <trkpt lat="42.97709" lon="-0.24475">
        <ele>1599.32</ele>
        <time>2018-08-19T11:34:37Z</time>
      </trkpt>
      <trkpt lat="42.9769" lon="-0.24473">
        <ele>1600.52</ele>
        <time>2018-08-19T11:34:46Z</time>
      </trkpt>
      <trkpt lat="42.97672" lon="-0.24473">
        <ele>1599.23</ele>
        <time>2018-08-19T11:34:53Z</time>
      </trkpt>
      <trkpt lat="42.97653" lon="-0.24472">
        <ele>1596.91</ele>
        <time>2018-08-19T11:35:02Z</time>
      </trkpt>
      <trkpt lat="42.97635" lon="-0.24477">
        <ele>1595.32</ele>
        <time>2018-08-19T11:35:07Z</time>
      </trkpt>
      <trkpt lat="42.97616" lon="-0.24481">
        <ele>1591.85</ele>
        <time>2018-08-19T11:35:17Z</time>
      </trkpt>
      <trkpt lat="42.97598" lon="-0.24475">
        <ele>1585.92</ele>
        <time>2018-08-19T11:35:26Z</time>
      </trkpt>
      <trkpt lat="42.9758" lon="-0.2447">
        <ele>1582.56</ele>
        <time>2018-08-19T11:35:32Z</time>
      </trkpt>
      <trkpt lat="42.97562" lon="-0.24468">
        <ele>1578.82</ele>
        <time>2018-08-19T11:35:44Z</time>
      </trkpt>
      <trkpt lat="42.97543" lon="-0.24471">
        <ele>1574.62</ele>
        <time>2018-08-19T11:35:53Z</time>
      </trkpt>
      <trkpt lat="42.97525" lon="-0.2448">
        <ele>1566.52</ele>
        <time>2018-08-19T11:36:42Z</time>
      </trkpt>
      <trkpt lat="42.97506" lon="-0.24484">
        <ele>1563.52</ele>
        <time>2018-08-19T11:37:16Z</time>
      </trkpt>
      <trkpt lat="42.97487" lon="-0.24482">
        <ele>1559.62</ele>
        <time>2018-08-19T11:37:27Z</time>
      </trkpt>
      <trkpt lat="42.97469" lon="-0.24481">
        <ele>1555.52</ele>
        <time>2018-08-19T11:37:48Z</time>
      </trkpt>
      <trkpt lat="42.97455" lon="-0.24497">
        <ele>1547.52</ele>
        <time>2018-08-19T11:39:27Z</time>
      </trkpt>
      <trkpt lat="42.97438" lon="-0.24513">
        <ele>1542.64</ele>
        <time>2018-08-19T11:39:37Z</time>
      </trkpt>
      <trkpt lat="42.9742" lon="-0.24508">
        <ele>1539.53</ele>
        <time>2018-08-19T11:40:36Z</time>
      </trkpt>
      <trkpt lat="42.97413" lon="-0.24485">
        <ele>1538.52</ele>
        <time>2018-08-19T11:40:44Z</time>
      </trkpt>
      <trkpt lat="42.97395" lon="-0.24482">
        <ele>1538.6</ele>
        <time>2018-08-19T11:40:50Z</time>
      </trkpt>
      <trkpt lat="42.97391" lon="-0.24456">
        <ele>1533.55</ele>
        <time>2018-08-19T11:41:02Z</time>
      </trkpt>
      <trkpt lat="42.974" lon="-0.24435">
        <ele>1530.83</ele>
        <time>2018-08-19T11:41:08Z</time>
      </trkpt>
      <trkpt lat="42.97406" lon="-0.2441">
        <ele>1529.61</ele>
        <time>2018-08-19T11:41:12Z</time>
      </trkpt>
      <trkpt lat="42.97411" lon="-0.24387">
        <ele>1527.83</ele>
        <time>2018-08-19T11:41:16Z</time>
      </trkpt>
      <trkpt lat="42.97403" lon="-0.24362">
        <ele>1522.94</ele>
        <time>2018-08-19T11:41:23Z</time>
      </trkpt>
      <trkpt lat="42.97393" lon="-0.24339">
        <ele>1517.85</ele>
        <time>2018-08-19T11:41:32Z</time>
      </trkpt>
      <trkpt lat="42.97398" lon="-0.24312">
        <ele>1511.95</ele>
        <time>2018-08-19T11:41:39Z</time>
      </trkpt>
      <trkpt lat="42.97385" lon="-0.24291">
        <ele>1510.23</ele>
        <time>2018-08-19T11:41:44Z</time>
      </trkpt>
      <trkpt lat="42.97388" lon="-0.24266">
        <ele>1508.77</ele>
        <time>2018-08-19T11:41:49Z</time>
      </trkpt>
      <trkpt lat="42.97388" lon="-0.24241">
        <ele>1503.65</ele>
        <time>2018-08-19T11:41:56Z</time>
      </trkpt>
      <trkpt lat="42.9739" lon="-0.24215">
        <ele>1496.95</ele>
        <time>2018-08-19T11:42:03Z</time>
      </trkpt>
      <trkpt lat="42.97389" lon="-0.2419">
        <ele>1491.86</ele>
        <time>2018-08-19T11:42:08Z</time>
      </trkpt>
      <trkpt lat="42.97381" lon="-0.24165">
        <ele>1487.04</ele>
        <time>2018-08-19T11:42:12Z</time>
      </trkpt>
      <trkpt lat="42.97369" lon="-0.24146">
        <ele>1484.65</ele>
        <time>2018-08-19T11:42:15Z</time>
      </trkpt>
      <trkpt lat="42.9736" lon="-0.24121">
        <ele>1483.62</ele>
        <time>2018-08-19T11:42:18Z</time>
      </trkpt>
      <trkpt lat="42.97357" lon="-0.24089">
        <ele>1482.55</ele>
        <time>2018-08-19T11:42:21Z</time>
      </trkpt>
      <trkpt lat="42.97356" lon="-0.24063">
        <ele>1480.56</ele>
        <time>2018-08-19T11:42:25Z</time>
      </trkpt>
      <trkpt lat="42.97346" lon="-0.24034">
        <ele>1475.95</ele>
        <time>2018-08-19T11:42:30Z</time>
      </trkpt>
      <trkpt lat="42.97349" lon="-0.24004">
        <ele>1472.86</ele>
        <time>2018-08-19T11:42:34Z</time>
      </trkpt>
      <trkpt lat="42.97351" lon="-0.23978">
        <ele>1470.86</ele>
        <time>2018-08-19T11:42:37Z</time>
      </trkpt>
      <trkpt lat="42.97357" lon="-0.23954">
        <ele>1465.94</ele>
        <time>2018-08-19T11:43:20Z</time>
      </trkpt>
      <trkpt lat="42.97377" lon="-0.23944">
        <ele>1465.12</ele>
        <time>2018-08-19T11:43:27Z</time>
      </trkpt>
      <trkpt lat="42.97396" lon="-0.23947">
        <ele>1467.78</ele>
        <time>2018-08-19T11:43:32Z</time>
      </trkpt>
      <trkpt lat="42.97414" lon="-0.23956">
        <ele>1464.86</ele>
        <time>2018-08-19T11:43:38Z</time>
      </trkpt>
      <trkpt lat="42.97433" lon="-0.23953">
        <ele>1461.55</ele>
        <time>2018-08-19T11:43:44Z</time>
      </trkpt>
      <trkpt lat="42.97454" lon="-0.23949">
        <ele>1460.55</ele>
        <time>2018-08-19T11:43:49Z</time>
      </trkpt>
      <trkpt lat="42.97473" lon="-0.23944">
        <ele>1457.65</ele>
        <time>2018-08-19T11:43:53Z</time>
      </trkpt>
      <trkpt lat="42.9749" lon="-0.23929">
        <ele>1454.94</ele>
        <time>2018-08-19T11:43:57Z</time>
      </trkpt>
      <trkpt lat="42.97504" lon="-0.23912">
        <ele>1452.64</ele>
        <time>2018-08-19T11:44:01Z</time>
      </trkpt>
      <trkpt lat="42.97513" lon="-0.23891">
        <ele>1449.94</ele>
        <time>2018-08-19T11:44:05Z</time>
      </trkpt>
      <trkpt lat="42.97521" lon="-0.23868">
        <ele>1447.83</ele>
        <time>2018-08-19T11:44:10Z</time>
      </trkpt>
      <trkpt lat="42.97533" lon="-0.23845">
        <ele>1445.83</ele>
        <time>2018-08-19T11:44:14Z</time>
      </trkpt>
      <trkpt lat="42.97543" lon="-0.23821">
        <ele>1442.95</ele>
        <time>2018-08-19T11:44:17Z</time>
      </trkpt>
      <trkpt lat="42.9755" lon="-0.23797">
        <ele>1440.92</ele>
        <time>2018-08-19T11:44:20Z</time>
      </trkpt>
      <trkpt lat="42.97557" lon="-0.23769">
        <ele>1438.85</ele>
        <time>2018-08-19T11:44:24Z</time>
      </trkpt>
      <trkpt lat="42.9756" lon="-0.23739">
        <ele>1439.22</ele>
        <time>2018-08-19T11:44:29Z</time>
      </trkpt>
      <trkpt lat="42.97556" lon="-0.23713">
        <ele>1437.91</ele>
        <time>2018-08-19T11:44:35Z</time>
      </trkpt>
      <trkpt lat="42.9755" lon="-0.23686">
        <ele>1433.85</ele>
        <time>2018-08-19T11:44:42Z</time>
      </trkpt>
      <trkpt lat="42.97545" lon="-0.2366">
        <ele>1430.83</ele>
        <time>2018-08-19T11:44:49Z</time>
      </trkpt>
      <trkpt lat="42.97544" lon="-0.23633">
        <ele>1426.83</ele>
        <time>2018-08-19T11:44:59Z</time>
      </trkpt>
      <trkpt lat="42.97552" lon="-0.2361">
        <ele>1424.61</ele>
        <time>2018-08-19T11:45:07Z</time>
      </trkpt>
      <trkpt lat="42.9756" lon="-0.23586">
        <ele>1423.44</ele>
        <time>2018-08-19T11:45:13Z</time>
      </trkpt>
      <trkpt lat="42.97575" lon="-0.23566">
        <ele>1422.53</ele>
        <time>2018-08-19T11:45:19Z</time>
      </trkpt>
      <trkpt lat="42.9759" lon="-0.23545">
        <ele>1424.43</ele>
        <time>2018-08-19T11:45:24Z</time>
      </trkpt>
      <trkpt lat="42.97606" lon="-0.23525">
        <ele>1420.95</ele>
        <time>2018-08-19T11:45:29Z</time>
      </trkpt>
      <trkpt lat="42.97618" lon="-0.23506">
        <ele>1419.53</ele>
        <time>2018-08-19T11:45:33Z</time>
      </trkpt>
      <trkpt lat="42.97634" lon="-0.23487">
        <ele>1418.55</ele>
        <time>2018-08-19T11:45:38Z</time>
      </trkpt>
      <trkpt lat="42.9765" lon="-0.2347">
        <ele>1417.52</ele>
        <time>2018-08-19T11:45:43Z</time>
      </trkpt>
      <trkpt lat="42.97665" lon="-0.23455">
        <ele>1417.52</ele>
        <time>2018-08-19T11:45:47Z</time>
      </trkpt>
      <trkpt lat="42.97682" lon="-0.2344">
        <ele>1414.65</ele>
        <time>2018-08-19T11:45:51Z</time>
      </trkpt>
      <trkpt lat="42.97696" lon="-0.23422">
        <ele>1411.86</ele>
        <time>2018-08-19T11:45:56Z</time>
      </trkpt>
      <trkpt lat="42.97713" lon="-0.23412">
        <ele>1408.83</ele>
        <time>2018-08-19T11:46:01Z</time>
      </trkpt>
      <trkpt lat="42.97725" lon="-0.2339">
        <ele>1403.65</ele>
        <time>2018-08-19T11:46:08Z</time>
      </trkpt>
      <trkpt lat="42.97734" lon="-0.23367">
        <ele>1395.95</ele>
        <time>2018-08-19T11:46:16Z</time>
      </trkpt>
      <trkpt lat="42.97734" lon="-0.23341">
        <ele>1391.66</ele>
        <time>2018-08-19T11:46:20Z</time>
      </trkpt>
      <trkpt lat="42.97741" lon="-0.23311">
        <ele>1389.64</ele>
        <time>2018-08-19T11:46:24Z</time>
      </trkpt>
      <trkpt lat="42.97731" lon="-0.23285">
        <ele>1390.51</ele>
        <time>2018-08-19T11:46:28Z</time>
      </trkpt>
      <trkpt lat="42.97724" lon="-0.23253">
        <ele>1388.62</ele>
        <time>2018-08-19T11:46:32Z</time>
      </trkpt>
      <trkpt lat="42.97721" lon="-0.23225">
        <ele>1388.52</ele>
        <time>2018-08-19T11:46:36Z</time>
      </trkpt>
      <trkpt lat="42.97715" lon="-0.23201">
        <ele>1380.85</ele>
        <time>2018-08-19T11:46:50Z</time>
      </trkpt>
      <trkpt lat="42.97698" lon="-0.2319">
        <ele>1378.64</ele>
        <time>2018-08-19T11:46:57Z</time>
      </trkpt>
      <trkpt lat="42.9768" lon="-0.23185">
        <ele>1376.53</ele>
        <time>2018-08-19T11:47:05Z</time>
      </trkpt>
      <trkpt lat="42.97665" lon="-0.23171">
        <ele>1374.82</ele>
        <time>2018-08-19T11:47:15Z</time>
      </trkpt>
      <trkpt lat="42.97648" lon="-0.2316">
        <ele>1373.82</ele>
        <time>2018-08-19T11:47:23Z</time>
      </trkpt>
      <trkpt lat="42.97634" lon="-0.23142">
        <ele>1372.52</ele>
        <time>2018-08-19T11:47:29Z</time>
      </trkpt>
      <trkpt lat="42.97628" lon="-0.23116">
        <ele>1371.46</ele>
        <time>2018-08-19T11:47:36Z</time>
      </trkpt>
      <trkpt lat="42.97616" lon="-0.23095">
        <ele>1369.85</ele>
        <time>2018-08-19T11:47:45Z</time>
      </trkpt>
      <trkpt lat="42.97596" lon="-0.23081">
        <ele>1370.2</ele>
        <time>2018-08-19T11:47:50Z</time>
      </trkpt>
      <trkpt lat="42.9758" lon="-0.23061">
        <ele>1372.48</ele>
        <time>2018-08-19T11:47:54Z</time>
      </trkpt>
      <trkpt lat="42.97567" lon="-0.23038">
        <ele>1371.53</ele>
        <time>2018-08-19T11:47:58Z</time>
      </trkpt>
      <trkpt lat="42.97558" lon="-0.23011">
        <ele>1369.91</ele>
        <time>2018-08-19T11:48:03Z</time>
      </trkpt>
      <trkpt lat="42.97554" lon="-0.22981">
        <ele>1365.95</ele>
        <time>2018-08-19T11:48:07Z</time>
      </trkpt>
      <trkpt lat="42.97549" lon="-0.22955">
        <ele>1358.92</ele>
        <time>2018-08-19T11:48:19Z</time>
      </trkpt>
      <trkpt lat="42.97536" lon="-0.22937">
        <ele>1350.65</ele>
        <time>2018-08-19T11:48:29Z</time>
      </trkpt>
      <trkpt lat="42.97524" lon="-0.22919">
        <ele>1347.71</ele>
        <time>2018-08-19T11:48:34Z</time>
      </trkpt>
      <trkpt lat="42.97509" lon="-0.229">
        <ele>1340.66</ele>
        <time>2018-08-19T11:48:41Z</time>
      </trkpt>
      <trkpt lat="42.97501" lon="-0.22877">
        <ele>1333.04</ele>
        <time>2018-08-19T11:48:47Z</time>
      </trkpt>
      <trkpt lat="42.97496" lon="-0.22853">
        <ele>1324.89</ele>
        <time>2018-08-19T11:48:56Z</time>
      </trkpt>
      <trkpt lat="42.97477" lon="-0.22845">
        <ele>1319.55</ele>
        <time>2018-08-19T11:49:05Z</time>
      </trkpt>
      <trkpt lat="42.97475" lon="-0.22817">
        <ele>1313.95</ele>
        <time>2018-08-19T11:49:13Z</time>
      </trkpt>
      <trkpt lat="42.97458" lon="-0.22807">
        <ele>1307.91</ele>
        <time>2018-08-19T11:49:24Z</time>
      </trkpt>
      <trkpt lat="42.9745" lon="-0.22782">
        <ele>1301.89</ele>
        <time>2018-08-19T11:49:30Z</time>
      </trkpt>
      <trkpt lat="42.97448" lon="-0.22809">
        <ele>1298.83</ele>
        <time>2018-08-19T11:49:37Z</time>
      </trkpt>
      <trkpt lat="42.97439" lon="-0.22782">
        <ele>1294.01</ele>
        <time>2018-08-19T11:49:45Z</time>
      </trkpt>
      <trkpt lat="42.97427" lon="-0.22807">
        <ele>1288.04</ele>
        <time>2018-08-19T11:49:53Z</time>
      </trkpt>
      <trkpt lat="42.97409" lon="-0.22798">
        <ele>1280.95</ele>
        <time>2018-08-19T11:50:04Z</time>
      </trkpt>
      <trkpt lat="42.97395" lon="-0.2282">
        <ele>1276.85</ele>
        <time>2018-08-19T11:50:11Z</time>
      </trkpt>
      <trkpt lat="42.97381" lon="-0.22798">
        <ele>1271.85</ele>
        <time>2018-08-19T11:51:40Z</time>
      </trkpt>
      <trkpt lat="42.97368" lon="-0.22776">
        <ele>1266.05</ele>
        <time>2018-08-19T11:51:44Z</time>
      </trkpt>
      <trkpt lat="42.97355" lon="-0.22755">
        <ele>1264.63</ele>
        <time>2018-08-19T11:51:47Z</time>
      </trkpt>
      <trkpt lat="42.97346" lon="-0.22731">
        <ele>1263.61</ele>
        <time>2018-08-19T11:51:50Z</time>
      </trkpt>
      <trkpt lat="42.97339" lon="-0.22704">
        <ele>1260.94</ele>
        <time>2018-08-19T11:51:53Z</time>
      </trkpt>
      <trkpt lat="42.97336" lon="-0.22669">
        <ele>1257.31</ele>
        <time>2018-08-19T11:51:56Z</time>
      </trkpt>
      <trkpt lat="42.97339" lon="-0.22635">
        <ele>1251.38</ele>
        <time>2018-08-19T11:51:59Z</time>
      </trkpt>
      <trkpt lat="42.97345" lon="-0.22603">
        <ele>1248.94</ele>
        <time>2018-08-19T11:52:02Z</time>
      </trkpt>
      <trkpt lat="42.97349" lon="-0.22573">
        <ele>1245.95</ele>
        <time>2018-08-19T11:52:05Z</time>
      </trkpt>
      <trkpt lat="42.97345" lon="-0.22546">
        <ele>1242.95</ele>
        <time>2018-08-19T11:52:08Z</time>
      </trkpt>
      <trkpt lat="42.97329" lon="-0.22525">
        <ele>1241.83</ele>
        <time>2018-08-19T11:52:11Z</time>
      </trkpt>
      <trkpt lat="42.97315" lon="-0.22509">
        <ele>1240.85</ele>
        <time>2018-08-19T11:52:13Z</time>
      </trkpt>
      <trkpt lat="42.97296" lon="-0.22487">
        <ele>1237.04</ele>
        <time>2018-08-19T11:52:16Z</time>
      </trkpt>
      <trkpt lat="42.97277" lon="-0.22485">
        <ele>1234.65</ele>
        <time>2018-08-19T11:52:19Z</time>
      </trkpt>
      <trkpt lat="42.97255" lon="-0.22485">
        <ele>1235.44</ele>
        <time>2018-08-19T11:52:22Z</time>
      </trkpt>
      <trkpt lat="42.97237" lon="-0.22474">
        <ele>1233.91</ele>
        <time>2018-08-19T11:52:25Z</time>
      </trkpt>
      <trkpt lat="42.97221" lon="-0.22456">
        <ele>1232.56</ele>
        <time>2018-08-19T11:52:28Z</time>
      </trkpt>
      <trkpt lat="42.97207" lon="-0.22437">
        <ele>1230.85</ele>
        <time>2018-08-19T11:52:31Z</time>
      </trkpt>
      <trkpt lat="42.97194" lon="-0.22418">
        <ele>1227.04</ele>
        <time>2018-08-19T11:52:34Z</time>
      </trkpt>
      <trkpt lat="42.97179" lon="-0.22398">
        <ele>1222.95</ele>
        <time>2018-08-19T11:52:38Z</time>
      </trkpt>
      <trkpt lat="42.97161" lon="-0.22376">
        <ele>1217.07</ele>
        <time>2018-08-19T11:52:42Z</time>
      </trkpt>
      <trkpt lat="42.97143" lon="-0.22359">
        <ele>1213.04</ele>
        <time>2018-08-19T11:52:45Z</time>
      </trkpt>
      <trkpt lat="42.97124" lon="-0.22347">
        <ele>1208.98</ele>
        <time>2018-08-19T11:52:48Z</time>
      </trkpt>
      <trkpt lat="42.97105" lon="-0.22333">
        <ele>1205.95</ele>
        <time>2018-08-19T11:52:51Z</time>
      </trkpt>
      <trkpt lat="42.97085" lon="-0.22318">
        <ele>1203.92</ele>
        <time>2018-08-19T11:52:54Z</time>
      </trkpt>
      <trkpt lat="42.97065" lon="-0.22303">
        <ele>1200.95</ele>
        <time>2018-08-19T11:52:57Z</time>
      </trkpt>
      <trkpt lat="42.97039" lon="-0.22292">
        <ele>1196.98</ele>
        <time>2018-08-19T11:53:00Z</time>
      </trkpt>
      <trkpt lat="42.9702" lon="-0.22288">
        <ele>1195.86</ele>
        <time>2018-08-19T11:53:02Z</time>
      </trkpt>
      <trkpt lat="42.97001" lon="-0.22283">
        <ele>1194.15</ele>
        <time>2018-08-19T11:53:04Z</time>
      </trkpt>
      <trkpt lat="42.96983" lon="-0.22276">
        <ele>1192.88</ele>
        <time>2018-08-19T11:53:06Z</time>
      </trkpt>
      <trkpt lat="42.96959" lon="-0.22261">
        <ele>1191.83</ele>
        <time>2018-08-19T11:53:09Z</time>
      </trkpt>
      <trkpt lat="42.96943" lon="-0.22248">
        <ele>1190.85</ele>
        <time>2018-08-19T11:53:11Z</time>
      </trkpt>
      <trkpt lat="42.96924" lon="-0.22232">
        <ele>1189.85</ele>
        <time>2018-08-19T11:53:13Z</time>
      </trkpt>
      <trkpt lat="42.96907" lon="-0.22215">
        <ele>1187.03</ele>
        <time>2018-08-19T11:53:15Z</time>
      </trkpt>
      <trkpt lat="42.96891" lon="-0.22196">
        <ele>1185.87</ele>
        <time>2018-08-19T11:53:17Z</time>
      </trkpt>
      <trkpt lat="42.96877" lon="-0.22177">
        <ele>1184.85</ele>
        <time>2018-08-19T11:53:19Z</time>
      </trkpt>
      <trkpt lat="42.96862" lon="-0.22154">
        <ele>1182.65</ele>
        <time>2018-08-19T11:53:22Z</time>
      </trkpt>
      <trkpt lat="42.96849" lon="-0.22129">
        <ele>1181.85</ele>
        <time>2018-08-19T11:53:27Z</time>
      </trkpt>
      <trkpt lat="42.96837" lon="-0.2211">
        <ele>1178.74</ele>
        <time>2018-08-19T11:53:30Z</time>
      </trkpt>
      <trkpt lat="42.96825" lon="-0.22087">
        <ele>1174.97</ele>
        <time>2018-08-19T11:53:33Z</time>
      </trkpt>
      <trkpt lat="42.96817" lon="-0.22065">
        <ele>1173.56</ele>
        <time>2018-08-19T11:53:36Z</time>
      </trkpt>
      <trkpt lat="42.96811" lon="-0.22037">
        <ele>1173.25</ele>
        <time>2018-08-19T11:53:39Z</time>
      </trkpt>
      <trkpt lat="42.96803" lon="-0.22011">
        <ele>1172.82</ele>
        <time>2018-08-19T11:53:43Z</time>
      </trkpt>
      <trkpt lat="42.96798" lon="-0.21986">
        <ele>1170.55</ele>
        <time>2018-08-19T11:53:52Z</time>
      </trkpt>
      <trkpt lat="42.96788" lon="-0.21962">
        <ele>1167.62</ele>
        <time>2018-08-19T11:53:58Z</time>
      </trkpt>
      <trkpt lat="42.96779" lon="-0.2194">
        <ele>1164.94</ele>
        <time>2018-08-19T11:54:02Z</time>
      </trkpt>
      <trkpt lat="42.96768" lon="-0.21919">
        <ele>1161.62</ele>
        <time>2018-08-19T11:54:07Z</time>
      </trkpt>
      <trkpt lat="42.96758" lon="-0.21894">
        <ele>1159.82</ele>
        <time>2018-08-19T11:54:13Z</time>
      </trkpt>
      <trkpt lat="42.96754" lon="-0.21869">
        <ele>1156.62</ele>
        <time>2018-08-19T11:54:18Z</time>
      </trkpt>
      <trkpt lat="42.96744" lon="-0.21848">
        <ele>1153.62</ele>
        <time>2018-08-19T11:54:25Z</time>
      </trkpt>
      <trkpt lat="42.9673" lon="-0.21829">
        <ele>1150.56</ele>
        <time>2018-08-19T11:54:31Z</time>
      </trkpt>
      <trkpt lat="42.96722" lon="-0.21804">
        <ele>1144.4</ele>
        <time>2018-08-19T11:54:36Z</time>
      </trkpt>
      <trkpt lat="42.96703" lon="-0.21791">
        <ele>1138.64</ele>
        <time>2018-08-19T11:54:44Z</time>
      </trkpt>
      <trkpt lat="42.96692" lon="-0.21765">
        <ele>1135.86</ele>
        <time>2018-08-19T11:54:48Z</time>
      </trkpt>
      <trkpt lat="42.96687" lon="-0.21741">
        <ele>1131.92</ele>
        <time>2018-08-19T11:54:54Z</time>
      </trkpt>
      <trkpt lat="42.96687" lon="-0.21716">
        <ele>1126.92</ele>
        <time>2018-08-19T11:55:00Z</time>
      </trkpt>
      <trkpt lat="42.96691" lon="-0.21691">
        <ele>1123.65</ele>
        <time>2018-08-19T11:55:06Z</time>
      </trkpt>
      <trkpt lat="42.96686" lon="-0.21666">
        <ele>1116.83</ele>
        <time>2018-08-19T11:55:24Z</time>
      </trkpt>
      <trkpt lat="42.96669" lon="-0.21655">
        <ele>1110.55</ele>
        <time>2018-08-19T11:55:37Z</time>
      </trkpt>
      <trkpt lat="42.96654" lon="-0.2164">
        <ele>1105.85</ele>
        <time>2018-08-19T11:55:44Z</time>
      </trkpt>
      <trkpt lat="42.96635" lon="-0.21624">
        <ele>1098.26</ele>
        <time>2018-08-19T11:55:50Z</time>
      </trkpt>
      <trkpt lat="42.96618" lon="-0.21613">
        <ele>1084.55</ele>
        <time>2018-08-19T11:56:54Z</time>
      </trkpt>
      <trkpt lat="42.96603" lon="-0.21598">
        <ele>1079.86</ele>
        <time>2018-08-19T11:57:02Z</time>
      </trkpt>
      <trkpt lat="42.96585" lon="-0.21613">
        <ele>1074.82</ele>
        <time>2018-08-19T11:57:16Z</time>
      </trkpt>
      <trkpt lat="42.96567" lon="-0.21626">
        <ele>1073.62</ele>
        <time>2018-08-19T11:57:19Z</time>
      </trkpt>
      <trkpt lat="42.96545" lon="-0.21638">
        <ele>1072.82</ele>
        <time>2018-08-19T11:57:22Z</time>
      </trkpt>
      <trkpt lat="42.96523" lon="-0.21658">
        <ele>1071.56</ele>
        <time>2018-08-19T11:57:25Z</time>
      </trkpt>
      <trkpt lat="42.96508" lon="-0.21678">
        <ele>1070.83</ele>
        <time>2018-08-19T11:57:27Z</time>
      </trkpt>
      <trkpt lat="42.96492" lon="-0.21698">
        <ele>1068.94</ele>
        <time>2018-08-19T11:57:29Z</time>
      </trkpt>
      <trkpt lat="42.96476" lon="-0.21718">
        <ele>1067.86</ele>
        <time>2018-08-19T11:57:31Z</time>
      </trkpt>
      <trkpt lat="42.96458" lon="-0.21738">
        <ele>1064.33</ele>
        <time>2018-08-19T11:57:33Z</time>
      </trkpt>
      <trkpt lat="42.96438" lon="-0.21758">
        <ele>1061.98</ele>
        <time>2018-08-19T11:57:35Z</time>
      </trkpt>
      <trkpt lat="42.96418" lon="-0.2178">
        <ele>1058.34</ele>
        <time>2018-08-19T11:57:37Z</time>
      </trkpt>
      <trkpt lat="42.96397" lon="-0.21802">
        <ele>1055.08</ele>
        <time>2018-08-19T11:57:39Z</time>
      </trkpt>
      <trkpt lat="42.96376" lon="-0.21825">
        <ele>1051.35</ele>
        <time>2018-08-19T11:57:41Z</time>
      </trkpt>
      <trkpt lat="42.96355" lon="-0.21848">
        <ele>1048.08</ele>
        <time>2018-08-19T11:57:43Z</time>
      </trkpt>
      <trkpt lat="42.96338" lon="-0.21867">
        <ele>1045.96</ele>
        <time>2018-08-19T11:57:45Z</time>
      </trkpt>
      <trkpt lat="42.96318" lon="-0.21883">
        <ele>1044.83</ele>
        <time>2018-08-19T11:57:48Z</time>
      </trkpt>
      <trkpt lat="42.96295" lon="-0.2188">
        <ele>1043.83</ele>
        <time>2018-08-19T11:57:51Z</time>
      </trkpt>
      <trkpt lat="42.96285" lon="-0.21858">
        <ele>1042.85</ele>
        <time>2018-08-19T11:57:53Z</time>
      </trkpt>
      <trkpt lat="42.96284" lon="-0.21832">
        <ele>1040.94</ele>
        <time>2018-08-19T11:57:55Z</time>
      </trkpt>
      <trkpt lat="42.9628" lon="-0.218">
        <ele>1038.65</ele>
        <time>2018-08-19T11:57:58Z</time>
      </trkpt>
      <trkpt lat="42.96253" lon="-0.21793">
        <ele>1035.94</ele>
        <time>2018-08-19T11:58:01Z</time>
      </trkpt>
      <trkpt lat="42.96234" lon="-0.21813">
        <ele>1034.86</ele>
        <time>2018-08-19T11:58:03Z</time>
      </trkpt>
      <trkpt lat="42.96223" lon="-0.2184">
        <ele>1034.06</ele>
        <time>2018-08-19T11:58:05Z</time>
      </trkpt>
      <trkpt lat="42.96217" lon="-0.21868">
        <ele>1032.87</ele>
        <time>2018-08-19T11:58:07Z</time>
      </trkpt>
      <trkpt lat="42.96228" lon="-0.21901">
        <ele>1030.86</ele>
        <time>2018-08-19T11:58:10Z</time>
      </trkpt>
      <trkpt lat="42.96224" lon="-0.21935">
        <ele>1030.53</ele>
        <time>2018-08-19T11:58:13Z</time>
      </trkpt>
      <trkpt lat="42.96208" lon="-0.21946">
        <ele>1029.82</ele>
        <time>2018-08-19T11:58:15Z</time>
      </trkpt>
      <trkpt lat="42.9619" lon="-0.21941">
        <ele>1027.94</ele>
        <time>2018-08-19T11:58:17Z</time>
      </trkpt>
      <trkpt lat="42.96172" lon="-0.21936">
        <ele>1024.34</ele>
        <time>2018-08-19T11:58:19Z</time>
      </trkpt>
      <trkpt lat="42.96152" lon="-0.21932">
        <ele>1021.08</ele>
        <time>2018-08-19T11:58:21Z</time>
      </trkpt>
      <trkpt lat="42.96128" lon="-0.21937">
        <ele>1016.34</ele>
        <time>2018-08-19T11:58:24Z</time>
      </trkpt>
      <trkpt lat="42.96114" lon="-0.21967">
        <ele>1011.99</ele>
        <time>2018-08-19T11:58:27Z</time>
      </trkpt>
      <trkpt lat="42.96117" lon="-0.21996">
        <ele>1009.04</ele>
        <time>2018-08-19T11:58:29Z</time>
      </trkpt>
      <trkpt lat="42.96123" lon="-0.22022">
        <ele>1006.96</ele>
        <time>2018-08-19T11:58:31Z</time>
      </trkpt>
      <trkpt lat="42.96118" lon="-0.22054">
        <ele>1006.53</ele>
        <time>2018-08-19T11:58:34Z</time>
      </trkpt>
      <trkpt lat="42.96095" lon="-0.22058">
        <ele>1005.61</ele>
        <time>2018-08-19T11:58:37Z</time>
      </trkpt>
      <trkpt lat="42.96083" lon="-0.2204">
        <ele>1003.22</ele>
        <time>2018-08-19T11:58:39Z</time>
      </trkpt>
      <trkpt lat="42.96081" lon="-0.22012">
        <ele>998.45</ele>
        <time>2018-08-19T11:58:41Z</time>
      </trkpt>
      <trkpt lat="42.96078" lon="-0.21987">
        <ele>994.18</ele>
        <time>2018-08-19T11:58:43Z</time>
      </trkpt>
      <trkpt lat="42.9607" lon="-0.21957">
        <ele>991.93</ele>
        <time>2018-08-19T11:58:46Z</time>
      </trkpt>
      <trkpt lat="42.96062" lon="-0.21933">
        <ele>990.96</ele>
        <time>2018-08-19T11:58:51Z</time>
      </trkpt>
      <trkpt lat="42.96058" lon="-0.21901">
        <ele>992.49</ele>
        <time>2018-08-19T11:58:56Z</time>
      </trkpt>
      <trkpt lat="42.96064" lon="-0.2187">
        <ele>992.6</ele>
        <time>2018-08-19T11:59:00Z</time>
      </trkpt>
      <trkpt lat="42.96072" lon="-0.21843">
        <ele>990.85</ele>
        <time>2018-08-19T11:59:03Z</time>
      </trkpt>
      <trkpt lat="42.96072" lon="-0.21811">
        <ele>987.88</ele>
        <time>2018-08-19T11:59:06Z</time>
      </trkpt>
      <trkpt lat="42.9607" lon="-0.21781">
        <ele>985.86</ele>
        <time>2018-08-19T11:59:09Z</time>
      </trkpt>
      <trkpt lat="42.96073" lon="-0.21753">
        <ele>983.86</ele>
        <time>2018-08-19T11:59:12Z</time>
      </trkpt>
      <trkpt lat="42.9608" lon="-0.21724">
        <ele>982.55</ele>
        <time>2018-08-19T11:59:16Z</time>
      </trkpt>
      <trkpt lat="42.96064" lon="-0.21737">
        <ele>980.52</ele>
        <time>2018-08-19T11:59:29Z</time>
      </trkpt>
      <trkpt lat="42.96048" lon="-0.21755">
        <ele>979.53</ele>
        <time>2018-08-19T11:59:33Z</time>
      </trkpt>
      <trkpt lat="42.9603" lon="-0.21761">
        <ele>978.52</ele>
        <time>2018-08-19T11:59:43Z</time>
      </trkpt>
      <trkpt lat="42.96019" lon="-0.21738">
        <ele>976.61</ele>
        <time>2018-08-19T11:59:53Z</time>
      </trkpt>
      <trkpt lat="42.96005" lon="-0.21717">
        <ele>974.55</ele>
        <time>2018-08-19T11:59:58Z</time>
      </trkpt>
      <trkpt lat="42.95987" lon="-0.21709">
        <ele>970.92</ele>
        <time>2018-08-19T12:00:04Z</time>
      </trkpt>
      <trkpt lat="42.95972" lon="-0.21692">
        <ele>966.65</ele>
        <time>2018-08-19T12:00:10Z</time>
      </trkpt>
      <trkpt lat="42.95956" lon="-0.21676">
        <ele>962.55</ele>
        <time>2018-08-19T12:00:17Z</time>
      </trkpt>
      <trkpt lat="42.95943" lon="-0.21657">
        <ele>957.82</ele>
        <time>2018-08-19T12:00:36Z</time>
      </trkpt>
      <trkpt lat="42.9593" lon="-0.21639">
        <ele>951.85</ele>
        <time>2018-08-19T12:00:49Z</time>
      </trkpt>
      <trkpt lat="42.95915" lon="-0.21625">
        <ele>949.52</ele>
        <time>2018-08-19T12:00:58Z</time>
      </trkpt>
      <trkpt lat="42.95896" lon="-0.21619">
        <ele>944.82</ele>
        <time>2018-08-19T12:01:10Z</time>
      </trkpt>
      <trkpt lat="42.9588" lon="-0.216">
        <ele>940.64</ele>
        <time>2018-08-19T12:01:19Z</time>
      </trkpt>
      <trkpt lat="42.9587" lon="-0.21579">
        <ele>936.87</ele>
        <time>2018-08-19T12:01:23Z</time>
      </trkpt>
      <trkpt lat="42.95851" lon="-0.21586">
        <ele>933.52</ele>
        <time>2018-08-19T12:01:41Z</time>
      </trkpt>
      <trkpt lat="42.95836" lon="-0.216">
        <ele>927.85</ele>
        <time>2018-08-19T12:01:51Z</time>
      </trkpt>
      <trkpt lat="42.95821" lon="-0.21619">
        <ele>919.92</ele>
        <time>2018-08-19T12:02:05Z</time>
      </trkpt>
      <trkpt lat="42.95806" lon="-0.21637">
        <ele>916.83</ele>
        <time>2018-08-19T12:02:12Z</time>
      </trkpt>
      <trkpt lat="42.95787" lon="-0.21632">
        <ele>913.61</ele>
        <time>2018-08-19T12:02:22Z</time>
      </trkpt>
      <trkpt lat="42.95767" lon="-0.21632">
        <ele>909.83</ele>
        <time>2018-08-19T12:02:29Z</time>
      </trkpt>
      <trkpt lat="42.9575" lon="-0.21623">
        <ele>904.85</ele>
        <time>2018-08-19T12:02:39Z</time>
      </trkpt>
      <trkpt lat="42.9574" lon="-0.21602">
        <ele>902.82</ele>
        <time>2018-08-19T12:02:45Z</time>
      </trkpt>
      <trkpt lat="42.95727" lon="-0.21584">
        <ele>899.65</ele>
        <time>2018-08-19T12:02:49Z</time>
      </trkpt>
      <trkpt lat="42.95715" lon="-0.21565">
        <ele>894.74</ele>
        <time>2018-08-19T12:08:49Z</time>
      </trkpt>
      <trkpt lat="42.95695" lon="-0.21561">
        <ele>896.41</ele>
        <time>2018-08-19T12:08:53Z</time>
      </trkpt>
      <trkpt lat="42.95679" lon="-0.21551">
        <ele>896.52</ele>
        <time>2018-08-19T12:08:56Z</time>
      </trkpt>
      <trkpt lat="42.95662" lon="-0.21537">
        <ele>897.49</ele>
        <time>2018-08-19T12:08:59Z</time>
      </trkpt>
    </trkseg>
  </trk>
</gpx>